UA5484 / N110SY 7700 Squawk Report (17th of November, 2019)

Aircraft E75L Reg No. N110SY Age 5 years old
Model Emb-175 Jet engines 2 First flight 23-05-14
Registered 05-06-14 Rollout 04-14 Delivered 06-06-14
Construction No. 17000405 Line No. N/A Series 200LR
ADSHEX A02DDA Airline name United Express Owner SkyWest Airlines
Airfield based Chicago O`Hare~IL~N First tracked 2017-07-13 02:06:00

Flight history for N110SY

Route Flight No Date Playback
Los Angeles Intl (LAX) - San Antonio Intl (SAT) UA5924 2019-12-12 05:15:00
Vancouver International (YVR) - Los Angeles Intl (LAX) UA5547 2019-12-12 02:35:00
Los Angeles Intl (LAX) - Vancouver International (YVR) UA5419 2019-12-11 23:17:00
San Diego Intl (SAN) - Los Angeles Intl (LAX) UA5793 2019-12-11 19:20:00
Los Angeles Intl (LAX) - San Diego Intl (SAN) UA5675 2019-12-11 17:31:00
Santa Barbara Muni (SBA) - Los Angeles Intl (LAX) UA5488 2019-12-11 15:43:00
San Francisco Intl (SFO) - Santa Barbara Muni (SBA) UA5878 2019-12-11 08:04:00
Vancouver International (YVR) - San Francisco Intl (SFO) UA5987 2019-12-11 07:11:00
San Francisco Intl (SFO) - Vancouver International (YVR) UA5754 2019-12-11 04:12:00
Snohomish Co (PAE) - San Francisco Intl (SFO) UA5739 2019-12-11 00:52:00
Denver Intl (DEN) - Snohomish Co (PAE) UA5460 2019-12-10 22:50:00
Nashville Intl (BNA) - Denver Intl (DEN) UA5816 2019-12-10 15:23:00
Denver Intl (DEN) - Nashville Intl (BNA) UA5917 2019-12-10 12:40:00
Albuquerque International Sunport (ABQ) - Denver Intl (DEN) UA5915 2019-12-09 23:02:00
San Francisco Intl (SFO) - Albuquerque International Sunport (ABQ) UA5448 2019-12-09 21:59:00
Minneapolis-St.Paul Intl (MSP) - San Francisco Intl (SFO) UA5620 2019-12-09 18:42:00
San Francisco Intl (SFO) - Minneapolis-St.Paul Intl (MSP) UA5564 2019-12-09 05:48:00
Austin Bergstrom Intl (AUS) - San Francisco Intl (SFO) UA5498 2019-12-09 02:13:00
San Francisco Intl (SFO) - Austin Bergstrom Intl (AUS) UA5716 2019-12-08 19:19:00
Santa Barbara Muni (SBA) - San Francisco Intl (SFO) UA5601 2019-12-08 16:19:00
Time Lat Lon Altitude Heading Speed Vertical Rate
2019-11-17 16:35:39 GMT 29.977686 -95.288101 200 270 137 -896
2019-11-17 16:35:30 GMT 29.977707 -95.281731 325 270 137 -768
2019-11-17 16:35:20 GMT 29.977707 -95.275002 425 271 136 -640
2019-11-17 16:35:10 GMT 29.977615 -95.267731 550 271 136 -768
2019-11-17 16:35:00 GMT 29.977615 -95.259918 675 271 137 -768
2019-11-17 16:34:52 GMT 29.977592 -95.255585 750 270 141 -832
2019-11-17 16:34:49 GMT 29.977638 -95.252014 825 270 144 -832
2019-11-17 16:34:44 GMT 29.977661 -95.249367 850 270 147 -768
2019-11-17 16:34:37 GMT 29.977661 -95.241394 1,000 270 155 -896
2019-11-17 16:34:28 GMT 29.977707 -95.234612 1,100 270 166 -960
2019-11-17 16:34:25 GMT 29.977707 -95.233696 1,150 270 162 -896
2019-11-17 16:34:17 GMT 29.977686 -95.224991 1,250 270 166 -960
2019-11-17 16:34:13 GMT 29.977707 -95.222656 1,350 270 166 -960
2019-11-17 16:34:07 GMT 29.977686 -95.215485 1,450 271 164 -896
2019-11-17 16:34:04 GMT 29.977686 -95.215485 1,575 270 163 -960
2019-11-17 16:33:54 GMT 29.977779 -95.195877 1,675 270 163 -896
2019-11-17 16:33:42 GMT 29.977779 -95.195877 1,750 270 170 -832
2019-11-17 16:33:33 GMT 29.977753 -95.187645 1,825 271 171 128
2019-11-17 16:33:27 GMT 29.977686 -95.181320 1,800 271 171 64
2019-11-17 16:33:22 GMT 29.977661 -95.171600 1,825 271 170 -64
2019-11-17 16:33:15 GMT 29.977661 -95.171600 1,825 270 170 -64
2019-11-17 16:33:12 GMT 29.977638 -95.168571 1,825 271 170 0
2019-11-17 16:33:01 GMT 29.977592 -95.157639 1,825 270 170 0
2019-11-17 16:32:51 GMT 29.977615 -95.148872 1,825 270 165 128
2019-11-17 16:32:40 GMT 29.977547 -95.139351 1,825 273 161 0
2019-11-17 16:32:30 GMT 29.977524 -95.129967 1,825 270 161 0
2019-11-17 16:32:19 GMT 29.977501 -95.120560 1,825 271 160 64
2019-11-17 16:32:09 GMT 29.977407 -95.113754 1,825 274 161 -64
2019-11-17 16:31:58 GMT 29.976940 -95.102493 1,825 268 162 -64
2019-11-17 16:31:47 GMT 29.976837 -95.093674 1,800 282 165 -64
2019-11-17 16:31:39 GMT 29.975220 -95.087990 1,825 294 172 -128
2019-11-17 16:31:36 GMT 29.973816 -95.084465 1,825 296 176 -192
2019-11-17 16:31:32 GMT 29.972380 -95.080849 1,825 295 179 -128
2019-11-17 16:31:26 GMT 29.970749 -95.076866 1,825 296 182 128
2019-11-17 16:31:22 GMT 29.968964 -95.072617 1,825 296 182 64
2019-11-17 16:31:18 GMT 29.967770 -95.069641 1,825 296 182 64
2019-11-17 16:31:14 GMT 29.965622 -95.064537 1,825 296 182 0
2019-11-17 16:31:11 GMT 29.964752 -95.062431 1,825 296 182 0
2019-11-17 16:31:04 GMT 29.962231 -95.056236 1,825 296 182 64
2019-11-17 16:31:00 GMT 29.961067 -95.053436 1,825 296 182 64
2019-11-17 16:30:55 GMT 29.959436 -95.049538 1,800 296 183 64
2019-11-17 16:30:50 GMT 29.957291 -95.044395 1,800 296 188 0
2019-11-17 16:30:42 GMT 29.954086 -95.036636 1,800 296 195 0
2019-11-17 16:30:38 GMT 29.952734 -95.033386 1,800 296 198 0
2019-11-17 16:30:32 GMT 29.949921 -95.026566 1,800 296 204 0
2019-11-17 16:30:25 GMT 29.947495 -95.020592 1,800 296 204 0
2019-11-17 16:30:21 GMT 29.945709 -95.016335 1,800 296 205 -64
2019-11-17 16:30:12 GMT 29.942352 -95.008667 1,825 299 205 -192
2019-11-17 16:30:06 GMT 29.938396 -95.001633 1,825 310 206 64
2019-11-17 16:30:03 GMT 29.937241 -95.000183 1,825 315 207 0
2019-11-17 16:29:57 GMT 29.931976 -94.995712 1,825 327 208 -64
2019-11-17 16:29:52 GMT 29.928452 -94.993988 1,825 356 213 64
2019-11-17 16:29:49 GMT 29.920753 -94.992737 1,800 2 215 -128
2019-11-17 16:29:40 GMT 29.916796 -94.993118 1,825 5 215 -128
2019-11-17 16:29:37 GMT 29.912613 -94.993881 1,825 10 216 -192
2019-11-17 16:29:31 GMT 29.907898 -94.995132 1,850 18 218 -576
2019-11-17 16:29:27 GMT 29.903250 -94.997543 1,925 30 220 -1152
2019-11-17 16:29:20 GMT 29.898733 -95.001579 2,075 45 222 -1792
2019-11-17 16:29:17 GMT 29.895493 -95.006226 2,225 57 224 -1792
2019-11-17 16:29:11 GMT 29.893147 -95.011543 2,375 69 226 -1664
2019-11-17 16:29:06 GMT 29.891602 -95.018852 2,550 83 227 -1664
2019-11-17 16:29:00 GMT 29.891378 -95.023445 2,650 89 228 -1536
2019-11-17 16:28:53 GMT 29.891373 -95.032845 2,850 90 229 -1536
2019-11-17 16:28:50 GMT 29.891373 -95.036865 2,925 90 229 -1536
2019-11-17 16:28:44 GMT 29.891373 -95.045151 3,100 90 229 -1536
2019-11-17 16:28:39 GMT 29.891378 -95.049782 3,200 90 230 -1536
2019-11-17 16:28:34 GMT 29.891378 -95.058128 3,375 90 230 -1536
2019-11-17 16:28:28 GMT 29.891373 -95.063324 3,475 90 230 -1600
2019-11-17 16:28:22 GMT 29.891373 -95.070084 3,625 90 230 -1600
2019-11-17 16:28:18 GMT 29.891373 -95.075104 3,725 90 231 -1536
2019-11-17 16:28:11 GMT 29.891424 -95.084190 3,925 90 231 -1536
2019-11-17 16:28:08 GMT 29.891418 -95.087883 3,975 90 231 -1472
2019-11-17 16:28:02 GMT 29.891418 -95.097237 4,175 90 232 -1472
2019-11-17 16:27:57 GMT 29.891424 -95.100998 4,250 90 233 -1472
2019-11-17 16:27:51 GMT 29.891378 -95.110901 4,450 90 234 -1344
2019-11-17 16:27:47 GMT 29.891378 -95.113869 4,500 90 234 -1280
2019-11-17 16:27:40 GMT 29.891418 -95.124168 4,675 90 237 -1408
2019-11-17 16:27:36 GMT 29.891418 -95.127182 4,725 90 237 -1472
2019-11-17 16:27:30 GMT 29.891464 -95.136848 4,925 90 237 -1600
2019-11-17 16:27:26 GMT 29.891464 -95.140388 5,025 90 237 -1920
2019-11-17 16:27:19 GMT 29.891464 -95.151054 5,275 90 237 -1728
2019-11-17 16:27:15 GMT 29.891418 -95.153542 5,325 90 238 -1600
2019-11-17 16:27:08 GMT 29.891424 -95.164490 5,575 90 240 -1728
2019-11-17 16:27:05 GMT 29.891418 -95.166901 5,625 90 240 -1664
2019-11-17 16:26:58 GMT 29.891424 -95.175423 5,800 90 244 -512
2019-11-17 16:26:54 GMT 29.891424 -95.181023 5,800 90 245 -320
2019-11-17 16:26:49 GMT 29.891464 -95.189301 5,825 90 249 -64
2019-11-17 16:26:43 GMT 29.891424 -95.197182 5,825 90 250 64
2019-11-17 16:26:36 GMT 29.891472 -95.206284 5,825 90 257 0
2019-11-17 16:26:32 GMT 29.891464 -95.210953 5,825 90 261 0
2019-11-17 16:26:28 GMT 29.891472 -95.217484 5,825 90 267 -64
2019-11-17 16:26:25 GMT 29.891510 -95.222519 5,825 90 269 -64
2019-11-17 16:26:15 GMT 29.891518 -95.235580 5,825 90 275 -64
2019-11-17 16:26:12 GMT 29.891518 -95.238434 5,825 90 276 0
2019-11-17 16:26:09 GMT 29.891556 -95.242958 5,825 90 276 0
2019-11-17 16:26:06 GMT 29.891563 -95.249794 5,825 90 276 0
2019-11-17 16:26:00 GMT 29.891602 -95.255951 5,825 90 276 0
2019-11-17 16:25:54 GMT 29.891657 -95.266220 5,825 90 276 0
2019-11-17 16:25:51 GMT 29.891647 -95.271217 5,825 90 276 0
2019-11-17 16:25:44 GMT 29.891693 -95.281784 5,825 90 276 0
2019-11-17 16:25:40 GMT 29.891693 -95.287064 5,825 90 276 0
2019-11-17 16:25:34 GMT 29.891750 -95.296272 5,825 90 276 64
2019-11-17 16:25:30 GMT 29.891750 -95.301605 5,825 90 276 0
2019-11-17 16:25:23 GMT 29.891785 -95.312523 5,825 90 276 -64
2019-11-17 16:25:19 GMT 29.891844 -95.316956 5,825 90 276 0
2019-11-17 16:25:12 GMT 29.891876 -95.327843 5,825 90 276 -64
2019-11-17 16:25:09 GMT 29.891922 -95.331963 5,825 90 276 0
2019-11-17 16:25:05 GMT 29.891937 -95.338120 5,825 90 276 0
2019-11-17 16:25:02 GMT 29.891922 -95.342575 5,825 90 276 0
2019-11-17 16:24:59 GMT 29.891968 -95.347755 5,825 90 276 0
2019-11-17 16:24:55 GMT 29.891968 -95.353195 5,825 90 276 0
2019-11-17 16:24:52 GMT 29.891983 -95.358093 5,825 90 276 0
2019-11-17 16:24:48 GMT 29.891983 -95.362724 5,825 90 276 0
2019-11-17 16:24:42 GMT 29.892031 -95.371613 5,825 90 276 0
2019-11-17 16:24:38 GMT 29.892059 -95.379654 5,825 90 276 0
2019-11-17 16:24:31 GMT 29.892059 -95.389114 5,825 90 275 0
2019-11-17 16:24:26 GMT 29.892076 -95.395309 5,825 90 275 0
2019-11-17 16:24:22 GMT 29.892122 -95.402420 5,825 90 275 0
2019-11-17 16:24:19 GMT 29.892105 -95.404427 5,825 90 275 0
2019-11-17 16:24:15 GMT 29.892197 -95.419113 5,825 90 275 -64
2019-11-17 16:24:10 GMT 29.892197 -95.419113 5,825 90 275 0
2019-11-17 16:24:06 GMT 29.892170 -95.426491 5,825 90 275 0
2019-11-17 16:24:02 GMT 29.892197 -95.430260 5,825 90 275 -64
2019-11-17 16:23:59 GMT 29.892170 -95.434677 5,825 89 274 -64
2019-11-17 16:23:55 GMT 29.892122 -95.442268 5,825 88 274 64
2019-11-17 16:23:49 GMT 29.891739 -95.449539 5,825 83 274 0
2019-11-17 16:23:46 GMT 29.891281 -95.454185 5,825 82 274 0
2019-11-17 16:23:42 GMT 29.890640 -95.458832 5,825 79 276 -128
2019-11-17 16:23:39 GMT 29.889517 -95.464890 5,850 75 279 -448
2019-11-17 16:23:36 GMT 29.888399 -95.469467 5,900 73 280 -832
2019-11-17 16:23:33 GMT 29.887236 -95.473511 5,925 69 283 -1024
2019-11-17 16:23:28 GMT 29.885056 -95.479904 6,075 63 287 -1024
2019-11-17 16:23:25 GMT 29.883453 -95.483871 6,050 63 287 -1024
2019-11-17 16:23:21 GMT 29.881302 -95.488777 6,125 62 289 -960
2019-11-17 16:23:18 GMT 29.879013 -95.493744 6,175 61 291 -1024
2019-11-17 16:23:14 GMT 29.877087 -95.497849 6,225 62 292 -1216
2019-11-17 16:23:11 GMT 29.875214 -95.501930 6,300 62 293 -1280
2019-11-17 16:23:07 GMT 29.872147 -95.508591 6,400 61 293 -1280
2019-11-17 16:23:04 GMT 29.870476 -95.512177 6,425 62 294 -1280
2019-11-17 16:23:00 GMT 29.865463 -95.522850 6,625 61 295 -1344
2019-11-17 16:22:56 GMT 29.865463 -95.522850 6,625 61 295 -1344
2019-11-17 16:22:53 GMT 29.863493 -95.527145 6,750 61 295 -1280
2019-11-17 16:22:50 GMT 29.860655 -95.533127 6,775 61 295 -1280
2019-11-17 16:22:47 GMT 29.858837 -95.537003 6,850 61 295 -1344
2019-11-17 16:22:44 GMT 29.856510 -95.542007 6,925 61 295 -1344
2019-11-17 16:22:41 GMT 29.854523 -95.546249 7,000 61 294 -1344
2019-11-17 16:22:38 GMT 29.852879 -95.549713 7,050 61 293 -1344
2019-11-17 16:22:35 GMT 29.851959 -95.551796 7,075 61 293 -1344
2019-11-17 16:22:32 GMT 29.850128 -95.555649 7,125 61 293 -1280
2019-11-17 16:22:26 GMT 29.845230 -95.566109 7,300 61 293 -1280
2019-11-17 16:22:22 GMT 29.843170 -95.570488 7,375 61 293 -1344
2019-11-17 16:22:19 GMT 29.840378 -95.576408 7,450 61 294 -1280
2019-11-17 16:22:14 GMT 29.837173 -95.583168 7,575 61 295 -1344
2019-11-17 16:22:05 GMT 29.832001 -95.594261 7,750 61 297 -1344
2019-11-17 16:22:01 GMT 29.829557 -95.599525 7,775 61 297 -1344
2019-11-17 16:21:55 GMT 29.824768 -95.609787 7,975 61 300 -1344
2019-11-17 16:21:50 GMT 29.822760 -95.614174 8,050 61 300 -1344
2019-11-17 16:21:45 GMT 29.818569 -95.623116 8,250 61 304 -1408
2019-11-17 16:21:40 GMT 29.815704 -95.629173 8,300 61 304 -1408
2019-11-17 16:21:37 GMT 29.813004 -95.634880 8,375 61 304 -1344
2019-11-17 16:21:34 GMT 29.811401 -95.638313 8,425 61 305 -1344
2019-11-17 16:21:28 GMT 29.808096 -95.645355 8,550 61 305 -1344
2019-11-17 16:21:24 GMT 29.804398 -95.653206 8,675 61 306 -1408
2019-11-17 16:21:21 GMT 29.802246 -95.657799 8,750 61 306 -1408
2019-11-17 16:21:15 GMT 29.798321 -95.666145 8,875 61 307 -1344
2019-11-17 16:21:08 GMT 29.794647 -95.673912 9,000 61 307 -1408
2019-11-17 16:21:02 GMT 29.790024 -95.683784 9,125 61 308 -1408
2019-11-17 16:20:58 GMT 29.787598 -95.689018 9,225 61 309 -1408
2019-11-17 16:20:54 GMT 29.783703 -95.697327 9,350 61 310 -1408
2019-11-17 16:20:50 GMT 29.781467 -95.702011 9,425 61 310 -1408
2019-11-17 16:20:47 GMT 29.780119 -95.704971 9,475 61 310 -1408
2019-11-17 16:20:42 GMT 29.775742 -95.714180 9,625 61 310 -1344
2019-11-17 16:20:37 GMT 29.773132 -95.719757 9,675 61 309 -1344
2019-11-17 16:20:34 GMT 29.770296 -95.725868 9,800 61 308 -1408
2019-11-17 16:20:29 GMT 29.767317 -95.732224 9,900 61 308 -1408
2019-11-17 16:20:26 GMT 29.765854 -95.735283 9,950 61 308 -1408
2019-11-17 16:20:21 GMT 29.761869 -95.743752 10,100 61 309 -1344
2019-11-17 16:20:16 GMT 29.759123 -95.749512 10,250 61 310 -1408
2019-11-17 16:20:10 GMT 29.754747 -95.758827 10,325 61 310 -1408
2019-11-17 16:20:07 GMT 29.753119 -95.762276 10,475 61 310 -1344
2019-11-17 16:20:01 GMT 29.749022 -95.771004 10,525 61 310 -1408
2019-11-17 16:19:58 GMT 29.745529 -95.778488 10,625 61 312 -1408
2019-11-17 16:19:55 GMT 29.743855 -95.782097 10,700 61 312 -1408
2019-11-17 16:19:52 GMT 29.741667 -95.786674 10,775 61 312 -1408
2019-11-17 16:19:49 GMT 29.739990 -95.790230 10,825 61 314 -1408
2019-11-17 16:19:45 GMT 29.737610 -95.795288 10,875 61 314 -1408
2019-11-17 16:19:39 GMT 29.732168 -95.806648 11,000 61 315 -1408
2019-11-17 16:19:34 GMT 29.730103 -95.811081 11,150 61 316 -1408
2019-11-17 16:19:29 GMT 29.725744 -95.820274 11,325 61 318 -1408
2019-11-17 16:19:26 GMT 29.724302 -95.823349 11,350 61 318 -1408
2019-11-17 16:19:22 GMT 29.721588 -95.829094 11,450 61 318 -1408
2019-11-17 16:19:18 GMT 29.717651 -95.837440 11,575 61 319 -1408
2019-11-17 16:19:13 GMT 29.715454 -95.842140 11,600 61 320 -1408
2019-11-17 16:19:10 GMT 29.712431 -95.848495 11,750 61 321 -1472
2019-11-17 16:19:06 GMT 29.708195 -95.857597 11,900 61 322 -1472
2019-11-17 16:18:58 GMT 29.703735 -95.866966 12,050 61 324 -1472
2019-11-17 16:18:55 GMT 29.699158 -95.876678 12,200 61 326 -1472
2019-11-17 16:18:50 GMT 29.696320 -95.882812 12,250 61 327 -1536
2019-11-17 16:18:47 GMT 29.696320 -95.882812 12,350 61 327 -1536
2019-11-17 16:18:44 GMT 29.694855 -95.885872 12,350 61 327 -1600
2019-11-17 16:18:41 GMT 29.692694 -95.890450 12,425 61 327 -1600
2019-11-17 16:18:35 GMT 29.687153 -95.902084 12,600 61 327 -1152
2019-11-17 16:18:31 GMT 29.681103 -95.914955 12,900 61 327 -1152
2019-11-17 16:18:26 GMT 29.679611 -95.918022 12,925 61 328 -1152
2019-11-17 16:18:20 GMT 29.677185 -95.923218 12,850 61 328 -1152
2019-11-17 16:18:17 GMT 29.674398 -95.929062 12,925 61 328 -1152
2019-11-17 16:18:13 GMT 29.671326 -95.935471 13,000 61 330 -1152
2019-11-17 16:18:09 GMT 29.669037 -95.940277 13,050 61 330 -1152
2019-11-17 16:18:03 GMT 29.663832 -95.951248 13,200 61 334 -1216
2019-11-17 16:17:59 GMT 29.661667 -95.955910 13,275 61 335 -1216
2019-11-17 16:17:53 GMT 29.656952 -95.965942 13,450 61 338 -1216
2019-11-17 16:17:48 GMT 29.653610 -95.972969 13,500 61 341 -1280
2019-11-17 16:17:43 GMT 29.648758 -95.983162 13,675 61 344 -1216
2019-11-17 16:17:40 GMT 29.646467 -95.988037 13,725 61 345 -1216
2019-11-17 16:17:34 GMT 29.642509 -95.996437 13,775 61 348 -1280
2019-11-17 16:17:30 GMT 29.639112 -96.003593 13,875 61 350 -1280
2019-11-17 16:17:27 GMT 29.637856 -96.006233 13,900 61 351 -1280
2019-11-17 16:17:22 GMT 29.633200 -96.016144 14,025 61 356 -1280
2019-11-17 16:17:19 GMT 29.630638 -96.021477 14,100 61 360 -1280
2019-11-17 16:17:16 GMT 29.629057 -96.024818 14,100 61 360 -1280
2019-11-17 16:17:13 GMT 29.625937 -96.031441 14,225 61 362 -1280
2019-11-17 16:17:08 GMT 29.622208 -96.039261 14,700 61 364 -1280
2019-11-17 16:17:05 GMT 29.620239 -96.043434 14,350 61 366 -1280
2019-11-17 16:17:02 GMT 29.617950 -96.048187 14,425 61 369 -1216
2019-11-17 16:16:59 GMT 29.613834 -96.056862 14,550 61 372 -1408
2019-11-17 16:16:56 GMT 29.612530 -96.059555 14,550 61 373 -1664
2019-11-17 16:16:51 GMT 29.607330 -96.070419 14,750 61 375 -1664
2019-11-17 16:16:48 GMT 29.604721 -96.075966 14,825 61 375 -1664
2019-11-17 16:16:41 GMT 29.599869 -96.086212 15,050 61 379 -1664
2019-11-17 16:16:37 GMT 29.594515 -96.097466 15,125 61 379 -1664
2019-11-17 16:16:31 GMT 29.591263 -96.104225 15,275 61 380 -1728
2019-11-17 16:16:27 GMT 29.585344 -96.116692 15,425 61 382 -1664
2019-11-17 16:16:20 GMT 29.582840 -96.121971 15,550 61 383 -1664
2019-11-17 16:16:14 GMT 29.577347 -96.133484 15,750 61 384 -1728
2019-11-17 16:16:09 GMT 29.572632 -96.143524 15,900 61 384 -1728
2019-11-17 16:16:04 GMT 29.568771 -96.151802 16,025 63 386 -1728
2019-11-17 16:16:01 GMT 29.564529 -96.161850 16,175 66 388 -1728
2019-11-17 16:15:55 GMT 29.561090 -96.171303 16,325 68 390 -1728
2019-11-17 16:15:52 GMT 29.560410 -96.173309 16,350 69 391 -1728
2019-11-17 16:15:47 GMT 29.557039 -96.184601 16,525 72 393 -1792
2019-11-17 16:15:43 GMT 29.555099 -96.192383 16,625 75 393 -1792
2019-11-17 16:15:38 GMT 29.553177 -96.201309 16,725 77 396 -1728
2019-11-17 16:15:34 GMT 29.551163 -96.213722 16,975 81 396 -1728
2019-11-17 16:15:27 GMT 29.549789 -96.226288 17,100 84 398 -1728
2019-11-17 16:15:23 GMT 29.549194 -96.235588 17,225 87 399 -1728
2019-11-17 16:15:17 GMT 29.548986 -96.247070 17,400 91 402 -1856
2019-11-17 16:15:10 GMT 29.549423 -96.260254 17,525 92 402 -1984
2019-11-17 16:15:05 GMT 29.550201 -96.274834 17,825 93 404 -2304
2019-11-17 16:15:01 GMT 29.550522 -96.280586 17,925 93 404 -2368
2019-11-17 16:14:57 GMT 29.551529 -96.300606 18,825 93 412 -1856
2019-11-17 16:14:52 GMT 29.551529 -96.300606 18,425 93 406 -1984
2019-11-17 16:14:41 GMT 29.552757 -96.325218 18,650 93 410 -1856
2019-11-17 16:14:34 GMT 29.553410 -96.338303 18,825 93 412 -1856
2019-11-17 16:14:30 GMT 29.553873 -96.347893 18,950 93 414 -1856
2019-11-17 16:14:24 GMT 29.554504 -96.360664 19,150 93 417 -1856
2019-11-17 16:14:19 GMT 29.555132 -96.372665 19,325 93 419 -1856
2019-11-17 16:14:15 GMT 29.555643 -96.382462 19,450 93 422 -1856
2019-11-17 16:14:09 GMT 29.556244 -96.394569 19,625 93 424 -1856
2019-11-17 16:14:04 GMT 29.556976 -96.408989 19,975 93 427 -1920
2019-11-17 16:13:59 GMT 29.557480 -96.418922 19,975 93 427 -1920
2019-11-17 16:13:54 GMT 29.558075 -96.430756 20,050 93 428 -1920
2019-11-17 16:13:48 GMT 29.558622 -96.441170 20,275 93 429 -1920
2019-11-17 16:13:45 GMT 29.559036 -96.449821 20,400 93 429 -1920
2019-11-17 16:13:42 GMT 29.559275 -96.453926 20,450 93 429 -1856
2019-11-17 16:13:38 GMT 29.559879 -96.466690 20,625 93 429 -1920
2019-11-17 16:13:33 GMT 29.560438 -96.477623 20,775 93 430 -1920
2019-11-17 16:13:26 GMT 29.561096 -96.490807 20,950 93 430 -1920
2019-11-17 16:13:23 GMT 29.561417 -96.497658 21,050 93 431 -1920
2019-11-17 16:13:17 GMT 29.562254 -96.514137 21,300 93 432 -1920
2019-11-17 16:13:12 GMT 29.562859 -96.527061 21,450 93 433 -1920
2019-11-17 16:13:04 GMT 29.563698 -96.544403 21,700 93 435 -1920
2019-11-17 16:12:56 GMT 29.565140 -96.574135 22,050 93 437 -1920
2019-11-17 16:12:51 GMT 29.565140 -96.574135 22,125 93 437 -1984
2019-11-17 16:12:43 GMT 29.565903 -96.589470 22,275 93 437 -1920
2019-11-17 16:12:40 GMT 29.566452 -96.600563 22,500 93 438 -1920
2019-11-17 16:12:35 GMT 29.566864 -96.608963 22,675 93 439 -1984
2019-11-17 16:12:32 GMT 29.567236 -96.616676 22,900 93 439 -1984
2019-11-17 16:12:29 GMT 29.567688 -96.625656 22,825 93 440 -1984
2019-11-17 16:12:21 GMT 29.568493 -96.642044 23,150 93 441 -1984
2019-11-17 16:12:17 GMT 29.568865 -96.650337 23,150 93 441 -1984
2019-11-17 16:12:13 GMT 29.569473 -96.662201 23,350 93 443 -1984
2019-11-17 16:12:10 GMT 29.569748 -96.667801 23,525 93 444 -1984
2019-11-17 16:12:07 GMT 29.570448 -96.683296 23,650 93 446 -1984
2019-11-17 16:12:03 GMT 29.570892 -96.692314 23,650 93 446 -1984
2019-11-17 16:12:00 GMT 29.570892 -96.692314 23,750 93 447 -1984
2019-11-17 16:11:56 GMT 29.571238 -96.699615 23,875 93 448 -1984
2019-11-17 16:11:52 GMT 29.571762 -96.710587 24,025 93 450 -1984
2019-11-17 16:11:47 GMT 29.572449 -96.724899 24,200 93 451 -2048
2019-11-17 16:11:42 GMT 29.572952 -96.734512 25,150 93 460 -2048
2019-11-17 16:11:39 GMT 29.573318 -96.742172 24,525 93 454 -2048
2019-11-17 16:11:36 GMT 29.573660 -96.749428 24,550 93 455 -2048
2019-11-17 16:11:31 GMT 29.574917 -96.775551 24,825 93 458 -2048
2019-11-17 16:11:26 GMT 29.574917 -96.775551 24,925 93 459 -2048
2019-11-17 16:11:21 GMT 29.575476 -96.787292 25,075 93 461 -2048
2019-11-17 16:11:15 GMT 29.576111 -96.800537 25,250 93 464 -2112
2019-11-17 16:11:10 GMT 29.576685 -96.812866 25,400 93 465 -2112
2019-11-17 16:11:05 GMT 29.577290 -96.826660 25,625 93 468 -2112
2019-11-17 16:11:00 GMT 29.577896 -96.839203 25,800 93 471 -2112
2019-11-17 16:10:57 GMT 29.578220 -96.846634 25,900 93 472 -2112
2019-11-17 16:10:54 GMT 29.578501 -96.852722 25,975 93 474 -2112
2019-11-17 16:10:51 GMT 29.579199 -96.867744 26,125 93 475 -2112
2019-11-17 16:10:48 GMT 29.579199 -96.867744 26,200 93 477 -2112
2019-11-17 16:10:44 GMT 29.579803 -96.879974 26,350 93 480 -2112
2019-11-17 16:10:39 GMT 29.580643 -96.898834 26,550 92 483 -2176
2019-11-17 16:10:32 GMT 29.581055 -96.906967 26,725 93 485 -2176
2019-11-17 16:10:29 GMT 29.581432 -96.915573 26,850 93 487 -2176
2019-11-17 16:10:26 GMT 29.582272 -96.933449 27,100 93 491 -2176
2019-11-17 16:10:18 GMT 29.582783 -96.944817 27,250 93 493 -2176
2019-11-17 16:10:14 GMT 29.583206 -96.953819 27,350 93 495 -2176
2019-11-17 16:10:11 GMT 29.583572 -96.961159 27,500 93 497 -2240
2019-11-17 16:10:07 GMT 29.584133 -96.973305 27,650 93 499 -2240
2019-11-17 16:10:04 GMT 29.584488 -96.981232 27,775 93 501 -2240
2019-11-17 16:10:01 GMT 29.584925 -96.990318 27,900 93 502 -2240
2019-11-17 16:09:57 GMT 29.585484 -97.003082 28,075 92 505 -2240
2019-11-17 16:09:53 GMT 29.585861 -97.010971 28,200 92 506 -2304
2019-11-17 16:09:48 GMT 29.586594 -97.027290 28,400 92 509 -2240
2019-11-17 16:09:43 GMT 29.587051 -97.038063 28,475 92 510 -2240
2019-11-17 16:09:40 GMT 29.587345 -97.045090 28,650 93 511 -2240
2019-11-17 16:09:36 GMT 29.587967 -97.058556 28,850 93 513 -2304
2019-11-17 16:09:32 GMT 29.588333 -97.066269 28,950 93 514 -2304
2019-11-17 16:09:27 GMT 29.589340 -97.088135 29,175 92 517 -2304
2019-11-17 16:09:21 GMT 29.589706 -97.095848 29,375 92 519 -2304
2019-11-17 16:09:17 GMT 29.590302 -97.109055 29,625 92 522 -2304
2019-11-17 16:09:14 GMT 29.590714 -97.118774 29,650 92 523 -2304
2019-11-17 16:09:11 GMT 29.590988 -97.124527 29,725 92 523 -2304
2019-11-17 16:09:08 GMT 29.591953 -97.147362 29,975 92 525 -2368
2019-11-17 16:09:04 GMT 29.591953 -97.147362 30,075 92 527 -2368
2019-11-17 16:09:00 GMT 29.592279 -97.154091 30,175 92 527 -2368
2019-11-17 16:08:56 GMT 29.592884 -97.168526 30,375 92 530 -2368
2019-11-17 16:08:52 GMT 29.593397 -97.179939 30,525 93 532 -2368
2019-11-17 16:08:48 GMT 29.593918 -97.190712 30,675 93 534 -2368
2019-11-17 16:08:44 GMT 29.594282 -97.199165 30,800 92 535 -2368
2019-11-17 16:08:41 GMT 29.594793 -97.210533 30,950 92 538 -2368
2019-11-17 16:08:37 GMT 29.595245 -97.221397 31,100 92 539 -2368
2019-11-17 16:08:33 GMT 29.596069 -97.239670 31,350 92 542 -2432
2019-11-17 16:08:27 GMT 29.596563 -97.250603 31,525 92 543 -2496
2019-11-17 16:08:24 GMT 29.596935 -97.259537 31,650 92 545 -2496
2019-11-17 16:08:20 GMT 29.597355 -97.269073 31,725 92 545 -2496
2019-11-17 16:08:16 GMT 29.597914 -97.281677 31,975 92 548 -2624
2019-11-17 16:08:12 GMT 29.598518 -97.295837 32,175 92 550 -2816
2019-11-17 16:08:06 GMT 29.599216 -97.311890 32,425 92 552 -2048
2019-11-17 16:08:02 GMT 29.599731 -97.323288 32,600 92 553 -1664
2019-11-17 16:07:59 GMT 29.600101 -97.332085 32,625 92 553 -1664
2019-11-17 16:07:55 GMT 29.600555 -97.343254 32,950 92 554 -960
2019-11-17 16:07:52 GMT 29.600939 -97.352058 32,750 92 554 -960
2019-11-17 16:07:48 GMT 29.601379 -97.361740 32,825 92 554 -960
2019-11-17 16:07:45 GMT 29.602478 -97.387886 32,925 92 554 -1024
2019-11-17 16:07:40 GMT 29.602478 -97.387886 32,975 92 554 -1024
2019-11-17 16:07:36 GMT 29.602894 -97.397896 33,025 92 554 -1024
2019-11-17 16:07:32 GMT 29.603394 -97.409012 33,125 92 553 -1024
2019-11-17 16:07:28 GMT 29.603943 -97.421951 33,150 92 553 -960
2019-11-17 16:07:24 GMT 29.604570 -97.436562 33,225 92 553 -960
2019-11-17 16:07:21 GMT 29.604849 -97.443611 33,275 92 553 -960
2019-11-17 16:07:18 GMT 29.605223 -97.452713 33,325 92 553 -1024
2019-11-17 16:07:15 GMT 29.605499 -97.458290 33,350 92 553 -1024
2019-11-17 16:07:11 GMT 29.606199 -97.475281 33,450 92 552 -1024
2019-11-17 16:07:08 GMT 29.606552 -97.484062 33,500 92 552 -960
2019-11-17 16:07:03 GMT 29.607101 -97.496956 33,575 92 551 -1024
2019-11-17 16:06:59 GMT 29.607422 -97.505142 33,650 92 552 -1024
2019-11-17 16:06:56 GMT 29.607880 -97.515656 33,650 92 552 -1024
2019-11-17 16:06:53 GMT 29.608200 -97.524399 33,725 92 552 -960
2019-11-17 16:06:50 GMT 29.608526 -97.531448 33,750 92 551 -960
2019-11-17 16:06:47 GMT 29.609070 -97.544968 33,850 92 553 -960
2019-11-17 16:06:44 GMT 29.609365 -97.551270 33,875 92 554 -1024
2019-11-17 16:06:40 GMT 29.609848 -97.562553 33,975 92 555 -960
2019-11-17 16:06:36 GMT 29.610296 -97.573784 34,000 92 555 -1024
2019-11-17 16:06:33 GMT 29.610672 -97.582626 34,050 92 555 -960
2019-11-17 16:06:29 GMT 29.611320 -97.598335 34,150 92 555 -1024
2019-11-17 16:06:25 GMT 29.611647 -97.606743 34,200 92 555 -1024
2019-11-17 16:06:21 GMT 29.612204 -97.620903 34,275 92 556 -1024
2019-11-17 16:06:18 GMT 29.612549 -97.628365 34,325 92 556 -1024
2019-11-17 16:06:15 GMT 29.612961 -97.639145 34,375 92 556 -960
2019-11-17 16:06:12 GMT 29.613321 -97.647995 34,425 92 557 -1024
2019-11-17 16:06:08 GMT 29.613787 -97.659737 34,475 92 557 -960
2019-11-17 16:06:04 GMT 29.614151 -97.668671 34,500 92 557 -1024
2019-11-17 16:06:01 GMT 29.614532 -97.677399 34,625 92 557 -1024
2019-11-17 16:05:57 GMT 29.615044 -97.690536 34,650 92 558 -1024
2019-11-17 16:05:54 GMT 29.615511 -97.702332 34,725 92 558 -1024
2019-11-17 16:05:50 GMT 29.615789 -97.709335 34,750 92 558 -960
2019-11-17 16:05:47 GMT 29.616346 -97.722420 34,825 92 558 -1024
2019-11-17 16:05:43 GMT 29.616720 -97.732002 34,875 92 558 -960
2019-11-17 16:05:39 GMT 29.617081 -97.740875 35,000 92 557 -576
2019-11-17 16:05:36 GMT 29.617538 -97.752701 34,975 92 557 -832
2019-11-17 16:05:33 GMT 29.617977 -97.762810 35,000 92 556 -128
2019-11-17 16:05:30 GMT 29.618210 -97.768738 35,000 92 557 -64
2019-11-17 16:05:27 GMT 29.618582 -97.777946 35,000 92 557 64
2019-11-17 16:05:24 GMT 29.619047 -97.789848 35,000 92 557 0
2019-11-17 16:05:20 GMT 29.619461 -97.800026 35,000 92 557 64
2019-11-17 16:05:17 GMT 29.620148 -97.817879 35,000 92 557 0
2019-11-17 16:05:11 GMT 29.620468 -97.826118 35,000 92 557 0
2019-11-17 16:05:06 GMT 29.621050 -97.840736 35,000 92 556 0
2019-11-17 16:05:03 GMT 29.621338 -97.848572 35,000 92 556 0
2019-11-17 16:05:00 GMT 29.621655 -97.856140 35,000 92 556 64
2019-11-17 16:04:55 GMT 29.622482 -97.876724 35,000 92 556 64
2019-11-17 16:04:51 GMT 29.622866 -97.886948 35,000 92 556 -64
2019-11-17 16:04:47 GMT 29.623238 -97.896263 35,000 92 556 0
2019-11-17 16:04:43 GMT 29.623749 -97.909348 35,000 92 555 0
2019-11-17 16:04:38 GMT 29.624262 -97.922272 35,000 92 555 0
2019-11-17 16:04:35 GMT 29.624680 -97.933800 35,000 92 555 -64
2019-11-17 16:04:32 GMT 29.624954 -97.941475 35,000 92 555 -64
2019-11-17 16:04:29 GMT 29.625229 -97.948769 35,000 92 554 0
2019-11-17 16:04:24 GMT 29.625961 -97.967567 35,000 92 553 -64
2019-11-17 16:04:21 GMT 29.626144 -97.972221 35,000 92 553 -64
2019-11-17 16:04:18 GMT 29.626556 -97.982574 35,000 92 553 -128
2019-11-17 16:04:15 GMT 29.626831 -97.989700 35,000 92 552 0
2019-11-17 16:04:12 GMT 29.627241 -98.000847 35,000 92 552 64
2019-11-17 16:04:06 GMT 29.627798 -98.014793 35,000 92 552 -64
2019-11-17 16:04:02 GMT 29.628311 -98.029015 35,000 92 552 0
2019-11-17 16:03:58 GMT 29.628845 -98.042313 35,000 92 552 0
2019-11-17 16:03:53 GMT 29.629429 -98.058205 35,000 92 552 0
2019-11-17 16:03:50 GMT 29.629715 -98.065704 35,000 92 552 64
2019-11-17 16:03:47 GMT 29.630264 -98.081131 35,000 92 552 0
2019-11-17 16:03:44 GMT 29.630264 -98.081131 35,000 92 552 0
2019-11-17 16:03:41 GMT 29.630630 -98.090324 35,000 92 552 0
2019-11-17 16:03:38 GMT 29.631271 -98.108017 35,000 92 552 -64
2019-11-17 16:03:32 GMT 29.631546 -98.115143 35,000 92 553 64
2019-11-17 16:03:29 GMT 29.631849 -98.122772 35,000 92 553 64
2019-11-17 16:03:26 GMT 29.632315 -98.134514 35,000 92 553 0
2019-11-17 16:03:20 GMT 29.632965 -98.152702 35,000 92 553 -64
2019-11-17 16:03:15 GMT 29.633387 -98.164726 35,000 92 553 0
2019-11-17 16:03:11 GMT 29.633850 -98.176468 35,000 92 553 0
2019-11-17 16:03:08 GMT 29.634247 -98.187881 35,000 92 553 0
2019-11-17 16:03:05 GMT 29.634548 -98.196449 35,000 92 553 64
2019-11-17 16:02:59 GMT 29.635248 -98.215462 35,000 92 552 0
2019-11-17 16:02:55 GMT 29.635574 -98.225380 35,000 92 552 -64
2019-11-17 16:02:50 GMT 29.636040 -98.237427 35,000 92 552 64
2019-11-17 16:02:47 GMT 29.636457 -98.249443 35,000 92 552 64
2019-11-17 16:02:43 GMT 29.636765 -98.257973 35,000 92 552 0
2019-11-17 16:02:40 GMT 29.637222 -98.269905 35,000 96 550 -64
2019-11-17 16:02:36 GMT 29.637575 -98.279594 35,000 92 552 64
2019-11-17 16:02:33 GMT 29.637909 -98.289818 35,000 92 552 0
2019-11-17 16:02:29 GMT 29.638275 -98.300171 35,000 92 552 0
2019-11-17 16:02:26 GMT 29.638550 -98.307404 35,000 92 552 0
2019-11-17 16:02:23 GMT 29.638971 -98.319717 35,000 92 552 -64
2019-11-17 16:02:18 GMT 29.639484 -98.333778 35,000 92 552 64
2019-11-17 16:02:15 GMT 29.640089 -98.351173 35,000 92 552 0
2019-11-17 16:02:12 GMT 29.640089 -98.351173 35,000 92 552 0
2019-11-17 16:02:09 GMT 29.640463 -98.362968 35,000 92 551 -64
2019-11-17 16:02:06 GMT 29.640656 -98.368309 35,000 92 551 -64
2019-11-17 16:02:02 GMT 29.641113 -98.381035 35,000 93 551 -64
2019-11-17 16:01:58 GMT 29.641718 -98.392265 35,000 94 550 0
2019-11-17 16:01:55 GMT 29.642418 -98.402657 35,000 94 551 0
2019-11-17 16:01:51 GMT 29.643219 -98.412674 35,000 95 550 -64
2019-11-17 16:01:46 GMT 29.644592 -98.426514 35,000 96 550 0
2019-11-17 16:01:41 GMT 29.646606 -98.443314 35,000 98 549 0
2019-11-17 16:01:38 GMT 29.647980 -98.453079 35,000 99 549 -64
2019-11-17 16:01:34 GMT 29.648933 -98.459259 35,000 100 548 -64
2019-11-17 16:01:30 GMT 29.651262 -98.473152 35,000 101 548 0
2019-11-17 16:01:25 GMT 29.654343 -98.489525 35,000 102 547 -64
2019-11-17 16:01:20 GMT 29.657501 -98.504318 35,000 104 547 0
2019-11-17 16:01:15 GMT 29.663223 -98.527557 35,000 106 546 64
2019-11-17 16:01:11 GMT 29.663223 -98.527557 35,000 106 545 64
2019-11-17 16:01:06 GMT 29.666113 -98.538261 35,000 107 545 64
2019-11-17 16:01:03 GMT 29.669357 -98.549583 35,000 108 545 -64
2019-11-17 16:00:59 GMT 29.674305 -98.566910 35,000 108 546 0
2019-11-17 16:00:56 GMT 29.674305 -98.566910 35,000 108 546 64
2019-11-17 16:00:53 GMT 29.676041 -98.572983 35,000 108 546 64
2019-11-17 16:00:50 GMT 29.679520 -98.585075 35,000 108 546 0
2019-11-17 16:00:43 GMT 29.685471 -98.605835 35,000 108 547 0
2019-11-17 16:00:40 GMT 29.686752 -98.610268 35,000 108 547 64
2019-11-17 16:00:36 GMT 29.691147 -98.625694 35,000 108 547 -64
2019-11-17 16:00:33 GMT 29.692429 -98.630127 35,000 108 547 0
2019-11-17 16:00:29 GMT 29.696548 -98.644501 35,000 108 547 64
2019-11-17 16:00:25 GMT 29.698931 -98.652809 35,000 108 547 64
2019-11-17 16:00:21 GMT 29.702271 -98.664619 35,000 108 547 0
2019-11-17 16:00:17 GMT 29.704611 -98.672630 35,000 108 547 0
2019-11-17 16:00:13 GMT 29.707823 -98.683937 35,000 108 547 0
2019-11-17 16:00:10 GMT 29.710510 -98.693298 35,000 108 546 0
2019-11-17 16:00:07 GMT 29.712851 -98.701607 35,000 108 546 64
2019-11-17 16:00:03 GMT 29.718809 -98.722443 35,000 108 546 0
2019-11-17 15:59:56 GMT 29.721176 -98.730698 35,000 108 546 64
2019-11-17 15:59:52 GMT 29.724655 -98.742950 35,000 108 545 0
2019-11-17 15:59:49 GMT 29.726532 -98.749603 35,000 108 546 0
2019-11-17 15:59:44 GMT 29.732031 -98.768814 35,000 108 546 64
2019-11-17 15:59:41 GMT 29.733566 -98.774254 35,000 108 546 -64
2019-11-17 15:59:38 GMT 29.736557 -98.784729 35,000 108 546 0
2019-11-17 15:59:35 GMT 29.738159 -98.790382 35,000 108 546 64
2019-11-17 15:59:32 GMT 29.741480 -98.801987 35,000 108 546 0
2019-11-17 15:59:28 GMT 29.743063 -98.807480 35,000 108 546 0
2019-11-17 15:59:22 GMT 29.747765 -98.824013 35,000 108 546 -64
2019-11-17 15:59:19 GMT 29.751343 -98.836655 35,000 108 546 0
2019-11-17 15:59:15 GMT 29.754002 -98.846092 35,000 108 546 0
2019-11-17 15:59:11 GMT 29.757294 -98.857674 35,000 108 546 64
2019-11-17 15:59:07 GMT 29.759682 -98.865967 35,000 108 546 0
2019-11-17 15:59:04 GMT 29.763245 -98.878540 35,000 108 547 64
2019-11-17 15:59:01 GMT 29.766851 -98.891335 35,000 108 547 0
2019-11-17 15:58:58 GMT 29.766851 -98.891335 35,000 108 546 0
2019-11-17 15:58:54 GMT 29.770575 -98.904419 35,000 108 546 0
2019-11-17 15:58:49 GMT 29.773787 -98.915726 35,000 108 546 0
2019-11-17 15:58:46 GMT 29.776108 -98.923912 35,000 108 546 64
2019-11-17 15:58:42 GMT 29.780678 -98.939964 35,000 108 548 -64
2019-11-17 15:58:37 GMT 29.784449 -98.953262 35,000 107 547 -64
2019-11-17 15:58:33 GMT 29.787140 -98.962677 35,000 107 547 64
2019-11-17 15:58:29 GMT 29.789932 -98.972717 35,000 107 547 0
2019-11-17 15:58:25 GMT 29.792450 -98.981590 35,000 107 547 0
2019-11-17 15:58:19 GMT 29.797949 -99.000923 35,000 107 547 0
2019-11-17 15:58:15 GMT 29.801239 -99.012589 35,000 107 547 -64
2019-11-17 15:58:12 GMT 29.803665 -99.021255 35,000 107 547 0
2019-11-17 15:58:09 GMT 29.806229 -99.030289 35,000 107 547 0
2019-11-17 15:58:04 GMT 29.809341 -99.041374 35,000 107 547 0
2019-11-17 15:58:00 GMT 29.812088 -99.051094 35,000 107 547 -64
2019-11-17 15:57:57 GMT 29.814426 -99.059410 35,000 107 547 0
2019-11-17 15:57:54 GMT 29.817638 -99.070724 35,000 107 547 0
2019-11-17 15:57:51 GMT 29.819826 -99.078476 35,000 107 547 64
2019-11-17 15:57:48 GMT 29.822342 -99.087364 35,000 107 547 64
2019-11-17 15:57:44 GMT 29.824808 -99.096191 35,000 107 547 64
2019-11-17 15:57:41 GMT 29.828064 -99.107826 35,000 107 547 -64
2019-11-17 15:57:37 GMT 29.830441 -99.116119 35,000 107 547 0
2019-11-17 15:57:33 GMT 29.833839 -99.128288 35,000 107 547 0
2019-11-17 15:57:30 GMT 29.836853 -99.138832 35,000 107 547 -64
2019-11-17 15:57:27 GMT 29.838495 -99.144661 35,000 107 547 -64
2019-11-17 15:57:23 GMT 29.841333 -99.154900 35,000 107 547 0
2019-11-17 15:57:17 GMT 29.846786 -99.174271 35,000 107 547 0
2019-11-17 15:57:12 GMT 29.849533 -99.184044 35,000 107 546 0
2019-11-17 15:57:09 GMT 29.852785 -99.195663 35,000 107 546 64
2019-11-17 15:57:06 GMT 29.854568 -99.201897 35,000 107 546 64
2019-11-17 15:57:02 GMT 29.858141 -99.214622 35,000 107 546 -64
2019-11-17 15:56:59 GMT 29.860003 -99.221245 35,000 107 546 -64
2019-11-17 15:56:56 GMT 29.866333 -99.243889 35,000 107 545 64
2019-11-17 15:56:52 GMT 29.866333 -99.243889 35,000 107 545 64
2019-11-17 15:56:47 GMT 29.872105 -99.264275 35,000 107 544 64
2019-11-17 15:56:44 GMT 29.872105 -99.264275 35,000 107 544 64
2019-11-17 15:56:39 GMT 29.875946 -99.278061 35,000 107 544 0
2019-11-17 15:56:35 GMT 29.878902 -99.288513 35,000 107 543 64
2019-11-17 15:56:30 GMT 29.881975 -99.299553 35,000 107 543 -64
2019-11-17 15:56:27 GMT 29.885147 -99.310860 35,000 107 544 0
2019-11-17 15:56:23 GMT 29.888214 -99.321953 35,000 107 544 128
2019-11-17 15:56:18 GMT 29.894806 -99.345299 35,000 107 544 -64
2019-11-17 15:56:14 GMT 29.896637 -99.351898 35,000 107 544 -64
2019-11-17 15:56:11 GMT 29.900024 -99.364052 35,000 107 545 0
2019-11-17 15:56:07 GMT 29.900024 -99.364052 35,000 107 544 64
2019-11-17 15:56:04 GMT 29.902643 -99.373436 35,000 107 544 64
2019-11-17 15:55:58 GMT 29.907120 -99.389458 35,000 107 544 64
2019-11-17 15:55:54 GMT 29.912140 -99.407425 35,000 107 544 -64
2019-11-17 15:55:48 GMT 29.914490 -99.415985 35,000 107 545 64
2019-11-17 15:55:45 GMT 29.919914 -99.435280 35,000 107 544 0
2019-11-17 15:55:41 GMT 29.919914 -99.435280 35,000 107 544 64
2019-11-17 15:55:37 GMT 29.922987 -99.446320 35,000 107 545 64
2019-11-17 15:55:34 GMT 29.928360 -99.465637 35,000 107 544 64
2019-11-17 15:55:30 GMT 29.928360 -99.465637 35,000 107 544 -64
2019-11-17 15:55:27 GMT 29.930832 -99.474525 35,000 107 545 64
2019-11-17 15:55:23 GMT 29.934540 -99.487770 35,000 107 545 -64
2019-11-17 15:55:16 GMT 29.940308 -99.508507 35,000 107 547 64
2019-11-17 15:55:11 GMT 29.948265 -99.537125 35,000 107 547 -64
2019-11-17 15:55:05 GMT 29.950640 -99.545746 35,000 107 548 -64
2019-11-17 15:55:01 GMT 29.950640 -99.545746 35,000 107 548 -64
2019-11-17 15:54:53 GMT 29.956787 -99.567696 35,000 107 549 0
2019-11-17 15:54:49 GMT 29.960175 -99.579971 35,000 107 549 64
2019-11-17 15:54:43 GMT 29.964651 -99.596115 35,000 107 549 0
2019-11-17 15:54:40 GMT 29.966793 -99.603920 35,000 107 549 0
2019-11-17 15:54:37 GMT 29.969101 -99.612282 35,000 107 549 0
2019-11-17 15:54:34 GMT 29.972658 -99.625069 35,000 107 549 0
2019-11-17 15:54:30 GMT 29.974594 -99.632103 35,000 107 549 64
2019-11-17 15:54:27 GMT 29.977753 -99.643463 35,000 107 549 64
2019-11-17 15:54:23 GMT 29.980179 -99.652298 35,000 107 549 0
2019-11-17 15:54:18 GMT 29.983932 -99.665817 35,000 107 549 0
2019-11-17 15:54:13 GMT 29.987787 -99.679672 35,000 107 549 0
2019-11-17 15:54:10 GMT 29.990814 -99.690712 35,000 107 549 64
2019-11-17 15:54:03 GMT 29.996120 -99.709885 35,000 107 549 0
2019-11-17 15:53:58 GMT 29.999359 -99.721611 35,000 107 550 0
2019-11-17 15:53:52 GMT 30.004303 -99.739487 35,000 107 551 -64
2019-11-17 15:53:48 GMT 30.008011 -99.752953 35,000 107 551 0
2019-11-17 15:53:41 GMT 30.012415 -99.768990 35,000 107 551 64
2019-11-17 15:53:36 GMT 30.016186 -99.782669 35,000 107 553 -64
2019-11-17 15:53:31 GMT 30.020370 -99.797760 35,000 107 553 64
2019-11-17 15:53:28 GMT 30.023027 -99.807327 35,000 107 553 64
2019-11-17 15:53:21 GMT 30.028381 -99.826782 35,000 107 553 -64
2019-11-17 15:53:18 GMT 30.030624 -99.834862 35,000 107 553 0
2019-11-17 15:53:10 GMT 30.036758 -99.857216 35,000 107 554 0
2019-11-17 15:53:06 GMT 30.039461 -99.867096 35,000 107 554 64
2019-11-17 15:53:02 GMT 30.043030 -99.880051 35,000 107 554 64
2019-11-17 15:52:59 GMT 30.045000 -99.887199 35,000 107 554 0
2019-11-17 15:52:56 GMT 30.047379 -99.895828 35,000 107 554 -64
2019-11-17 15:52:48 GMT 30.054590 -99.922134 35,000 107 554 0
2019-11-17 15:52:45 GMT 30.056126 -99.927689 35,000 107 555 -64
2019-11-17 15:52:40 GMT 30.060654 -99.944351 35,000 107 555 0
2019-11-17 15:52:35 GMT 30.064682 -99.959000 35,000 107 555 -64
2019-11-17 15:52:29 GMT 30.068882 -99.974319 35,000 107 555 -64
2019-11-17 15:52:26 GMT 30.070908 -99.981674 35,000 107 555 0
2019-11-17 15:52:23 GMT 30.077261 -100.004807 35,000 107 555 -64
2019-11-17 15:52:18 GMT 30.077261 -100.004807 35,000 107 555 0
2019-11-17 15:52:15 GMT 30.079239 -100.012154 35,000 107 555 0
2019-11-17 15:52:09 GMT 30.086975 -100.040375 35,000 107 554 64
2019-11-17 15:52:06 GMT 30.086975 -100.040375 35,000 107 554 64
2019-11-17 15:51:58 GMT 30.094666 -100.068481 35,000 107 553 64
2019-11-17 15:51:52 GMT 30.096771 -100.076241 35,000 107 553 64
2019-11-17 15:51:48 GMT 30.100204 -100.088737 35,000 107 552 0
2019-11-17 15:51:45 GMT 30.102036 -100.095467 35,000 107 552 0
2019-11-17 15:51:41 GMT 30.105518 -100.108246 35,000 107 552 64
2019-11-17 15:51:36 GMT 30.109406 -100.122444 35,000 107 553 64
2019-11-17 15:51:33 GMT 30.111191 -100.129128 35,000 107 553 -64
2019-11-17 15:51:27 GMT 30.116224 -100.147575 35,000 107 553 -64
2019-11-17 15:51:24 GMT 30.118881 -100.157288 35,000 107 553 64
2019-11-17 15:51:14 GMT 30.128403 -100.192299 35,000 107 553 -64
2019-11-17 15:51:05 GMT 30.134054 -100.213112 35,000 107 553 64
2019-11-17 15:51:01 GMT 30.136047 -100.220406 35,000 107 553 -64
2019-11-17 15:50:54 GMT 30.143372 -100.247337 35,000 107 553 0
2019-11-17 15:50:45 GMT 30.150925 -100.275337 35,000 107 552 -64
2019-11-17 15:50:42 GMT 30.150925 -100.275337 35,000 107 552 0
2019-11-17 15:50:35 GMT 30.155703 -100.292984 35,000 107 551 0
2019-11-17 15:50:32 GMT 30.158295 -100.302536 35,000 107 551 0
2019-11-17 15:50:27 GMT 30.162079 -100.316437 35,000 107 551 64
2019-11-17 15:50:24 GMT 30.164825 -100.326653 35,000 107 551 -64
2019-11-17 15:50:21 GMT 30.166689 -100.333519 35,000 107 551 0
2019-11-17 15:50:13 GMT 30.172461 -100.354836 35,000 107 551 -64
2019-11-17 15:50:10 GMT 30.175369 -100.365547 35,000 107 551 -64
2019-11-17 15:50:04 GMT 30.179443 -100.380760 35,000 107 551 -64
2019-11-17 15:49:58 GMT 30.183958 -100.397461 35,000 107 551 64
2019-11-17 15:49:51 GMT 30.189926 -100.419563 35,000 107 551 64
2019-11-17 15:49:43 GMT 30.195694 -100.440887 35,000 107 550 64
2019-11-17 15:49:40 GMT 30.198120 -100.449883 35,000 107 550 64
2019-11-17 15:49:37 GMT 30.199951 -100.456558 35,000 107 550 64
2019-11-17 15:49:32 GMT 30.204163 -100.472343 35,000 107 550 0
2019-11-17 15:49:27 GMT 30.207184 -100.483543 35,000 107 550 64
2019-11-17 15:49:20 GMT 30.213547 -100.507072 35,000 107 550 64
2019-11-17 15:49:17 GMT 30.215801 -100.515511 35,000 107 550 64
2019-11-17 15:49:12 GMT 30.218994 -100.527275 35,000 107 550 0
2019-11-17 15:49:07 GMT 30.222610 -100.540787 35,000 107 550 0
2019-11-17 15:49:02 GMT 30.226501 -100.555328 35,000 107 550 -64
2019-11-17 15:48:59 GMT 30.229021 -100.564674 35,000 107 550 0
2019-11-17 15:48:51 GMT 30.234514 -100.585106 35,000 107 549 -64
2019-11-17 15:48:46 GMT 30.238424 -100.599663 35,000 107 549 -64
2019-11-17 15:48:40 GMT 30.242615 -100.615372 35,000 107 549 64
2019-11-17 15:48:35 GMT 30.246246 -100.628777 35,000 107 549 0
2019-11-17 15:48:30 GMT 30.251041 -100.646744 35,000 107 549 0
2019-11-17 15:48:26 GMT 30.253136 -100.654594 35,000 107 549 -64
2019-11-17 15:48:21 GMT 30.257767 -100.671928 35,000 107 550 -64
2019-11-17 15:48:17 GMT 30.261108 -100.684364 35,000 107 550 -64
2019-11-17 15:48:09 GMT 30.265751 -100.701782 35,000 107 550 -64
2019-11-17 15:48:03 GMT 30.270594 -100.719742 35,000 107 551 64
2019-11-17 15:47:59 GMT 30.273573 -100.731064 35,000 107 551 0
2019-11-17 15:47:56 GMT 30.277954 -100.747482 35,000 107 551 64
2019-11-17 15:47:49 GMT 30.281204 -100.759598 35,000 107 552 64
2019-11-17 15:47:42 GMT 30.286057 -100.777855 35,000 107 553 0
2019-11-17 15:47:38 GMT 30.289078 -100.789169 35,000 107 553 0
2019-11-17 15:47:32 GMT 30.294056 -100.807854 35,000 107 554 -64
2019-11-17 15:47:29 GMT 30.296707 -100.817741 35,000 107 555 -64
2019-11-17 15:47:22 GMT 30.301163 -100.834457 35,000 107 554 64
2019-11-17 15:47:18 GMT 30.304577 -100.847244 35,000 107 554 64
2019-11-17 15:47:13 GMT 30.308578 -100.862183 35,000 107 553 64
2019-11-17 15:47:07 GMT 30.312397 -100.876686 35,000 107 553 64
2019-11-17 15:47:03 GMT 30.316223 -100.891113 35,000 107 553 0
2019-11-17 15:46:58 GMT 30.319984 -100.905197 35,000 106 552 0
2019-11-17 15:46:50 GMT 30.325338 -100.925575 35,000 106 552 64
2019-11-17 15:46:47 GMT 30.327896 -100.935219 35,000 106 554 -64
2019-11-17 15:46:38 GMT 30.334881 -100.961609 35,000 106 555 -64
2019-11-17 15:46:29 GMT 30.340981 -100.984459 35,000 106 555 -64
2019-11-17 15:46:26 GMT 30.343353 -100.993469 35,000 106 556 64
2019-11-17 15:46:19 GMT 30.348475 -101.012863 35,000 106 556 0
2019-11-17 15:46:15 GMT 30.351500 -101.024284 35,000 106 556 0
2019-11-17 15:46:09 GMT 30.356735 -101.044220 35,000 106 555 0
2019-11-17 15:46:06 GMT 30.359070 -101.053055 35,000 106 555 0
2019-11-17 15:45:58 GMT 30.364243 -101.072548 35,000 106 554 64
2019-11-17 15:45:54 GMT 30.367096 -101.083282 35,000 106 552 -64
2019-11-17 15:45:49 GMT 30.372299 -101.103088 35,000 106 552 0
2019-11-17 15:45:45 GMT 30.374680 -101.112129 35,000 106 551 0
2019-11-17 15:45:40 GMT 30.378204 -101.125542 35,000 106 550 128
2019-11-17 15:45:37 GMT 30.380035 -101.132439 35,000 106 550 128
2019-11-17 15:45:34 GMT 30.382504 -101.141785 35,000 106 549 0
2019-11-17 15:45:29 GMT 30.386169 -101.155807 35,000 106 549 0
2019-11-17 15:45:26 GMT 30.388000 -101.162811 35,000 106 549 0
2019-11-17 15:45:23 GMT 30.390060 -101.170670 35,000 106 549 0
2019-11-17 15:45:19 GMT 30.393585 -101.184082 35,000 106 549 -64
2019-11-17 15:45:14 GMT 30.397587 -101.199188 35,000 106 549 -64
2019-11-17 15:45:09 GMT 30.401321 -101.213379 35,000 106 549 0
2019-11-17 15:45:03 GMT 30.405441 -101.229103 35,000 106 548 64
2019-11-17 15:44:58 GMT 30.408854 -101.242088 35,000 106 548 64
2019-11-17 15:44:55 GMT 30.411507 -101.252197 35,000 106 548 0
2019-11-17 15:44:52 GMT 30.412996 -101.257797 35,000 106 548 0
2019-11-17 15:44:47 GMT 30.417000 -101.273178 35,000 106 548 0
2019-11-17 15:44:42 GMT 30.420776 -101.287590 35,000 106 548 -64
2019-11-17 15:44:38 GMT 30.424448 -101.301636 35,000 106 549 64
2019-11-17 15:44:34 GMT 30.427334 -101.312622 35,000 106 549 0
2019-11-17 15:44:27 GMT 30.435900 -101.345413 35,000 106 548 0
2019-11-17 15:44:22 GMT 30.435900 -101.345413 35,000 106 548 0
2019-11-17 15:44:17 GMT 30.439716 -101.360031 35,000 106 549 0
2019-11-17 15:44:14 GMT 30.442200 -101.369614 35,000 106 549 0
2019-11-17 15:44:11 GMT 30.443665 -101.375214 35,000 106 549 0
2019-11-17 15:44:06 GMT 30.447351 -101.389305 35,000 106 549 0
2019-11-17 15:44:01 GMT 30.451309 -101.404457 35,000 106 549 0
2019-11-17 15:43:53 GMT 30.456848 -101.425674 35,000 106 549 -64
2019-11-17 15:43:50 GMT 30.458954 -101.433861 35,000 106 549 0
2019-11-17 15:43:46 GMT 30.462296 -101.446602 35,000 106 549 64
2019-11-17 15:43:39 GMT 30.466599 -101.463104 35,000 106 549 -64
2019-11-17 15:43:30 GMT 30.474197 -101.492348 35,000 106 548 0
2019-11-17 15:43:22 GMT 30.479008 -101.510872 35,000 106 548 64
2019-11-17 15:43:19 GMT 30.481613 -101.520866 35,000 106 547 64
2019-11-17 15:43:15 GMT 30.485151 -101.534439 35,000 106 547 64
2019-11-17 15:43:09 GMT 30.489075 -101.549591 35,000 106 547 0
2019-11-17 15:43:03 GMT 30.493019 -101.564758 35,000 106 547 0
2019-11-17 15:42:59 GMT 30.496742 -101.579208 35,000 106 548 -64
2019-11-17 15:42:54 GMT 30.500280 -101.592880 35,000 106 550 64
2019-11-17 15:42:48 GMT 30.504227 -101.608078 35,000 106 550 -64
2019-11-17 15:42:43 GMT 30.507751 -101.621651 35,000 106 550 0
2019-11-17 15:42:40 GMT 30.510361 -101.631775 35,000 106 550 0
2019-11-17 15:42:37 GMT 30.512293 -101.639084 35,000 106 549 0
2019-11-17 15:42:30 GMT 30.517044 -101.657570 35,000 106 548 64
2019-11-17 15:42:27 GMT 30.519554 -101.667259 35,000 106 547 0
2019-11-17 15:42:22 GMT 30.524002 -101.684502 35,000 106 547 -64
2019-11-17 15:42:17 GMT 30.526978 -101.695969 35,000 106 545 0
2019-11-17 15:42:12 GMT 30.530411 -101.709167 35,000 106 544 64
2019-11-17 15:42:07 GMT 30.534357 -101.724442 35,000 106 544 -64
2019-11-17 15:42:01 GMT 30.537964 -101.738403 35,000 106 544 0
2019-11-17 15:41:56 GMT 30.542086 -101.754379 35,000 106 545 64
2019-11-17 15:41:52 GMT 30.545471 -101.767540 35,000 106 545 0
2019-11-17 15:41:44 GMT 30.550510 -101.787125 35,000 106 546 0
2019-11-17 15:41:40 GMT 30.553677 -101.799484 35,000 106 547 -64
2019-11-17 15:41:36 GMT 30.557007 -101.812454 35,000 106 547 -64
2019-11-17 15:41:30 GMT 30.561172 -101.828758 35,000 106 547 -64
2019-11-17 15:41:25 GMT 30.564468 -101.841591 35,000 106 547 64
2019-11-17 15:41:21 GMT 30.567673 -101.854088 35,000 106 546 128
2019-11-17 15:41:14 GMT 30.571976 -101.870781 35,000 106 545 128
2019-11-17 15:41:08 GMT 30.576324 -101.887749 35,000 106 545 64
2019-11-17 15:41:04 GMT 30.579327 -101.899399 35,000 106 545 0
2019-11-17 15:40:56 GMT 30.584976 -101.921295 35,000 106 545 -64
2019-11-17 15:40:53 GMT 30.586990 -101.929161 35,000 106 545 -64
2019-11-17 15:40:49 GMT 30.590824 -101.944283 35,000 106 545 -64
2019-11-17 15:40:44 GMT 30.594086 -101.957001 35,000 106 544 -64
2019-11-17 15:40:37 GMT 30.598434 -101.973969 35,000 106 543 64
2019-11-17 15:40:32 GMT 30.601997 -101.987839 35,000 106 543 0
2019-11-17 15:40:29 GMT 30.605164 -102.000198 35,000 106 543 -64
2019-11-17 15:40:22 GMT 30.609400 -102.016846 35,000 106 542 -64
2019-11-17 15:40:16 GMT 30.613403 -102.032555 35,000 106 542 0
2019-11-17 15:40:13 GMT 30.616570 -102.044861 35,000 106 543 0
2019-11-17 15:40:07 GMT 30.620407 -102.059921 35,000 106 543 0
2019-11-17 15:40:01 GMT 30.623972 -102.073868 35,000 106 543 -64
2019-11-17 15:39:55 GMT 30.628647 -102.092285 35,000 106 543 -64
2019-11-17 15:39:52 GMT 30.631279 -102.102592 35,000 106 544 0
2019-11-17 15:39:46 GMT 30.634771 -102.116325 35,000 106 544 0
2019-11-17 15:39:41 GMT 30.638449 -102.130882 35,000 106 543 64
2019-11-17 15:39:36 GMT 30.643290 -102.149834 35,000 106 543 64
2019-11-17 15:39:30 GMT 30.646271 -102.161598 35,000 106 543 64
2019-11-17 15:39:26 GMT 30.649429 -102.173874 35,000 106 543 64
2019-11-17 15:39:21 GMT 30.653366 -102.189491 35,000 106 543 -64
2019-11-17 15:39:15 GMT 30.656931 -102.203506 35,000 106 543 0
2019-11-17 15:39:10 GMT 30.660606 -102.218063 35,000 106 544 -64
2019-11-17 15:39:06 GMT 30.664005 -102.231522 35,000 106 545 -64
2019-11-17 15:38:59 GMT 30.668242 -102.248383 35,000 106 547 -64
2019-11-17 15:38:53 GMT 30.672684 -102.265808 35,000 106 548 -64
2019-11-17 15:38:50 GMT 30.675411 -102.276566 35,000 106 549 -64
2019-11-17 15:38:41 GMT 30.680923 -102.298386 35,000 106 549 -64
2019-11-17 15:38:38 GMT 30.683044 -102.306778 35,000 106 550 0
2019-11-17 15:38:34 GMT 30.686920 -102.322083 35,000 106 550 64
2019-11-17 15:38:29 GMT 30.690399 -102.335922 35,000 106 550 64
2019-11-17 15:38:23 GMT 30.693707 -102.348961 35,000 106 550 0
2019-11-17 15:38:17 GMT 30.698221 -102.366867 35,000 106 550 64
2019-11-17 15:38:07 GMT 30.705391 -102.395325 35,000 106 549 64
2019-11-17 15:37:56 GMT 30.713072 -102.425865 35,000 106 546 -64
2019-11-17 15:37:53 GMT 30.715305 -102.434822 35,000 106 546 -64
2019-11-17 15:37:45 GMT 30.720985 -102.457344 35,000 106 544 -64
2019-11-17 15:37:41 GMT 30.724503 -102.471207 35,000 106 544 -64
2019-11-17 15:37:37 GMT 30.727295 -102.482353 35,000 106 542 64
2019-11-17 15:37:32 GMT 30.730408 -102.494797 35,000 106 541 64
2019-11-17 15:37:23 GMT 30.736588 -102.519463 35,000 106 540 64
2019-11-17 15:37:20 GMT 30.738396 -102.526718 35,000 106 540 64
2019-11-17 15:37:15 GMT 30.741898 -102.540627 35,000 106 540 0
2019-11-17 15:37:05 GMT 30.749010 -102.569016 35,000 106 539 0
2019-11-17 15:36:55 GMT 30.756134 -102.597389 35,000 106 538 -64
2019-11-17 15:36:45 GMT 30.763489 -102.626862 35,000 106 538 64
2019-11-17 15:36:37 GMT 30.769028 -102.649002 35,000 106 538 64
2019-11-17 15:36:34 GMT 30.770737 -102.655930 35,000 106 538 64
2019-11-17 15:36:27 GMT 30.774948 -102.672890 35,000 106 538 -64
2019-11-17 15:36:24 GMT 30.777740 -102.683983 35,000 106 538 0
2019-11-17 15:36:19 GMT 30.781084 -102.697556 35,000 106 538 64
2019-11-17 15:36:14 GMT 30.784994 -102.713158 35,000 106 537 64
2019-11-17 15:36:09 GMT 30.787788 -102.724419 35,000 106 537 -64
2019-11-17 15:36:02 GMT 30.792892 -102.744896 35,000 106 536 0
2019-11-17 15:35:58 GMT 30.795237 -102.754303 35,000 106 536 64
2019-11-17 15:35:49 GMT 30.802551 -102.783669 35,000 106 534 -64
2019-11-17 15:35:43 GMT 30.806223 -102.798470 35,000 106 533 -64
2019-11-17 15:35:38 GMT 30.809015 -102.809616 35,000 106 533 -64
2019-11-17 15:35:32 GMT 30.813345 -102.827255 35,000 105 533 -64
2019-11-17 15:35:25 GMT 30.818115 -102.846413 35,000 106 533 -64
2019-11-17 15:35:21 GMT 30.820587 -102.856430 35,000 106 533 0
2019-11-17 15:35:18 GMT 30.823288 -102.867310 35,000 105 533 64
2019-11-17 15:35:10 GMT 30.827957 -102.886154 35,000 105 533 64
2019-11-17 15:35:06 GMT 30.830849 -102.897675 35,000 105 533 64
2019-11-17 15:35:00 GMT 30.835327 -102.915886 35,000 105 533 0
2019-11-17 15:34:57 GMT 30.837204 -102.923584 35,000 106 532 -64
2019-11-17 15:34:51 GMT 30.841827 -102.942162 35,000 106 532 64
2019-11-17 15:34:45 GMT 30.845793 -102.958206 35,000 106 532 64
2019-11-17 15:34:40 GMT 30.848923 -102.970871 35,000 105 532 0
2019-11-17 15:34:34 GMT 30.852543 -102.985565 35,000 105 531 0
2019-11-17 15:34:29 GMT 30.856079 -103.000015 35,000 105 531 64
2019-11-17 15:34:24 GMT 30.859617 -103.014236 35,000 105 530 0
2019-11-17 15:34:20 GMT 30.862701 -103.026878 35,000 105 530 -64
2019-11-17 15:34:15 GMT 30.865402 -103.037704 35,000 105 530 0
2019-11-17 15:34:08 GMT 30.870138 -103.056976 35,000 105 529 0
2019-11-17 15:34:04 GMT 30.872635 -103.067215 35,000 105 529 -64
2019-11-17 15:33:55 GMT 30.879822 -103.096420 35,000 105 529 -64
2019-11-17 15:33:49 GMT 30.883593 -103.111740 35,000 105 529 0
2019-11-17 15:33:44 GMT 30.886246 -103.122673 35,000 105 529 0
2019-11-17 15:33:37 GMT 30.890671 -103.140671 35,000 105 528 64
2019-11-17 15:33:26 GMT 30.898178 -103.171265 35,000 105 528 0
2019-11-17 15:33:21 GMT 30.902206 -103.187691 35,000 105 528 0
2019-11-17 15:33:17 GMT 30.904541 -103.197273 35,000 105 528 -64
2019-11-17 15:33:07 GMT 30.911270 -103.224792 35,000 105 528 0
2019-11-17 15:33:02 GMT 30.914246 -103.236855 35,000 105 528 0
2019-11-17 15:32:57 GMT 30.918228 -103.253281 35,000 105 528 0
2019-11-17 15:32:53 GMT 30.921066 -103.264725 35,000 105 529 0
2019-11-17 15:32:46 GMT 30.925303 -103.282249 35,000 105 529 0
2019-11-17 15:32:39 GMT 30.929586 -103.299828 35,000 105 529 0
2019-11-17 15:32:36 GMT 30.932098 -103.310043 35,000 105 528 64
2019-11-17 15:32:29 GMT 30.936401 -103.327705 35,000 105 528 64
2019-11-17 15:32:26 GMT 30.938944 -103.338120 35,000 105 528 0
2019-11-17 15:32:21 GMT 30.942108 -103.351242 35,000 105 528 0
2019-11-17 15:32:14 GMT 30.946390 -103.368767 35,000 105 528 0
2019-11-17 15:32:09 GMT 30.949722 -103.382477 35,000 105 528 -64
2019-11-17 15:32:04 GMT 30.952927 -103.395561 35,000 105 528 64
2019-11-17 15:32:01 GMT 30.955980 -103.408157 35,000 105 528 -64
2019-11-17 15:31:54 GMT 30.959793 -103.423782 35,000 105 527 -64
2019-11-17 15:31:50 GMT 30.962591 -103.435234 35,000 105 526 64
2019-11-17 15:31:44 GMT 30.966595 -103.451767 35,000 105 526 64
2019-11-17 15:31:39 GMT 30.969955 -103.465523 35,000 105 526 64
2019-11-17 15:31:33 GMT 30.973618 -103.480545 35,000 105 525 0
2019-11-17 15:31:30 GMT 30.976137 -103.491104 35,000 105 525 -64
2019-11-17 15:31:23 GMT 30.980328 -103.508514 35,000 105 526 0
2019-11-17 15:31:19 GMT 30.983168 -103.520325 35,000 105 526 64
2019-11-17 15:31:13 GMT 30.986984 -103.536232 35,000 105 526 -64
2019-11-17 15:31:07 GMT 30.990570 -103.551033 35,000 105 526 0
2019-11-17 15:31:02 GMT 30.994759 -103.568443 35,000 105 526 64
2019-11-17 15:30:52 GMT 31.001089 -103.594704 35,000 105 527 192
2019-11-17 15:30:44 GMT 31.006210 -103.615990 35,000 105 527 -128
2019-11-17 15:30:41 GMT 31.008087 -103.623695 35,000 105 528 64
2019-11-17 15:30:37 GMT 31.010422 -103.633438 35,000 105 528 -64
2019-11-17 15:30:30 GMT 31.017429 -103.662598 35,000 105 528 128
2019-11-17 15:30:20 GMT 31.021666 -103.680176 35,000 105 529 64
2019-11-17 15:30:16 GMT 31.024155 -103.690636 35,000 105 529 -128
2019-11-17 15:30:10 GMT 31.028366 -103.708191 35,000 105 529 64
2019-11-17 15:30:06 GMT 31.031397 -103.720825 35,000 105 529 -64
2019-11-17 15:29:59 GMT 31.035233 -103.736732 35,000 105 528 128
2019-11-17 15:29:56 GMT 31.037449 -103.746040 35,000 105 527 192
2019-11-17 15:29:49 GMT 31.042282 -103.766029 35,000 105 527 -64
2019-11-17 15:29:45 GMT 31.044477 -103.775261 35,000 105 526 -64
2019-11-17 15:29:36 GMT 31.051392 -103.804214 35,000 105 524 0
2019-11-17 15:29:29 GMT 31.055649 -103.821770 35,000 105 523 192
2019-11-17 15:29:25 GMT 31.057838 -103.831017 35,000 105 522 64
2019-11-17 15:29:18 GMT 31.062260 -103.849472 35,000 105 520 -128
2019-11-17 15:29:14 GMT 31.065054 -103.861176 35,000 105 519 -64
2019-11-17 15:29:08 GMT 31.068916 -103.877380 35,000 105 517 64
2019-11-17 15:29:04 GMT 31.071198 -103.887047 35,000 105 517 192
2019-11-17 15:28:58 GMT 31.075745 -103.905998 35,000 105 516 -128
2019-11-17 15:28:54 GMT 31.077902 -103.915062 35,000 105 516 -64
2019-11-17 15:28:47 GMT 31.082382 -103.933838 35,000 105 515 0
2019-11-17 15:28:43 GMT 31.084396 -103.942406 35,000 105 515 128
2019-11-17 15:28:36 GMT 31.089020 -103.961685 35,000 105 515 -64
2019-11-17 15:28:32 GMT 31.091354 -103.971588 35,000 105 515 -64
2019-11-17 15:28:27 GMT 31.095337 -103.988342 35,000 105 515 64
2019-11-17 15:28:22 GMT 31.098175 -104.000191 35,000 105 516 -64
2019-11-17 15:28:16 GMT 31.101929 -104.016129 35,000 105 516 192
2019-11-17 15:28:13 GMT 31.104263 -104.025879 35,000 105 516 64
2019-11-17 15:28:05 GMT 31.108719 -104.044701 35,000 105 517 -128
2019-11-17 15:28:02 GMT 31.110855 -104.053886 35,000 105 517 -64
2019-11-17 15:27:56 GMT 31.115204 -104.072083 35,000 105 517 64
2019-11-17 15:27:52 GMT 31.117378 -104.081284 35,000 105 517 64
2019-11-17 15:27:45 GMT 31.121841 -104.100037 35,000 105 516 0
2019-11-17 15:27:42 GMT 31.124130 -104.109734 35,000 105 516 0
2019-11-17 15:27:35 GMT 31.128159 -104.126854 35,000 105 516 64
2019-11-17 15:27:30 GMT 31.130951 -104.138649 35,000 105 515 -64
2019-11-17 15:27:25 GMT 31.134705 -104.154488 35,000 105 515 -64
2019-11-17 15:27:20 GMT 31.137268 -104.165359 35,000 105 515 64
2019-11-17 15:27:14 GMT 31.141296 -104.182381 35,000 105 514 0
2019-11-17 15:27:11 GMT 31.143726 -104.192635 35,000 105 514 0
2019-11-17 15:27:06 GMT 31.146473 -104.204330 35,000 105 514 0
2019-11-17 15:27:03 GMT 31.148008 -104.210869 35,000 105 514 64
2019-11-17 15:26:59 GMT 31.150522 -104.221420 35,000 105 514 64
2019-11-17 15:26:54 GMT 31.154247 -104.237404 35,000 105 514 64
2019-11-17 15:26:49 GMT 31.156906 -104.248619 35,000 105 514 64
2019-11-17 15:26:43 GMT 31.160810 -104.265366 35,000 105 514 -64
2019-11-17 15:26:39 GMT 31.163452 -104.276573 35,000 105 514 0
2019-11-17 15:26:36 GMT 31.167376 -104.293106 35,000 105 514 0
2019-11-17 15:26:27 GMT 31.170820 -104.307991 35,000 105 513 0
2019-11-17 15:26:22 GMT 31.173752 -104.320358 35,000 105 513 -64
2019-11-17 15:26:19 GMT 31.176224 -104.331017 35,000 105 512 64
2019-11-17 15:26:12 GMT 31.180252 -104.348038 35,000 105 512 64
2019-11-17 15:26:08 GMT 31.182598 -104.357979 35,000 105 511 0
2019-11-17 15:26:05 GMT 31.186602 -104.375168 35,000 105 510 64
2019-11-17 15:25:58 GMT 31.188950 -104.385246 35,000 105 510 -64
2019-11-17 15:25:54 GMT 31.191536 -104.396210 35,000 105 509 -64
2019-11-17 15:25:51 GMT 31.193390 -104.404099 35,000 105 509 0
2019-11-17 15:25:48 GMT 31.195404 -104.412773 35,000 105 509 0
2019-11-17 15:25:41 GMT 31.199615 -104.430809 35,000 105 509 0
2019-11-17 15:25:37 GMT 31.202009 -104.440979 35,000 105 509 -64
2019-11-17 15:25:31 GMT 31.206024 -104.458275 35,000 105 509 0
2019-11-17 15:25:26 GMT 31.208817 -104.470123 35,000 105 508 -64
2019-11-17 15:25:23 GMT 31.210785 -104.478638 35,000 105 508 64
2019-11-17 15:25:20 GMT 31.212669 -104.486572 35,000 105 508 64
2019-11-17 15:25:17 GMT 31.214767 -104.495544 35,000 105 508 128
2019-11-17 15:25:13 GMT 31.217606 -104.507721 35,000 105 508 -64
2019-11-17 15:25:09 GMT 31.219048 -104.514091 35,000 105 508 -64
2019-11-17 15:25:06 GMT 31.221176 -104.523064 35,000 105 508 64
2019-11-17 15:25:00 GMT 31.225471 -104.541557 35,000 105 508 0
2019-11-17 15:24:55 GMT 31.227707 -104.551117 35,000 105 508 -64
2019-11-17 15:24:49 GMT 31.231750 -104.568573 35,000 105 508 0
2019-11-17 15:24:45 GMT 31.233948 -104.578102 35,000 105 508 0
2019-11-17 15:24:39 GMT 31.238159 -104.596092 35,000 105 508 -64
2019-11-17 15:24:35 GMT 31.240356 -104.605675 35,000 105 508 64
2019-11-17 15:24:28 GMT 31.244522 -104.623451 35,000 105 508 64
2019-11-17 15:24:25 GMT 31.246653 -104.632637 35,000 105 508 -64
2019-11-17 15:24:21 GMT 31.249586 -104.645325 35,000 105 508 0
2019-11-17 15:24:18 GMT 31.250797 -104.650650 35,000 105 508 64
2019-11-17 15:24:12 GMT 31.254429 -104.666306 35,000 105 508 0
2019-11-17 15:24:08 GMT 31.257174 -104.678116 35,000 105 508 64
2019-11-17 15:24:03 GMT 31.259674 -104.688988 35,000 105 508 -64
2019-11-17 15:24:00 GMT 31.261829 -104.698280 35,000 105 508 -64
2019-11-17 15:23:57 GMT 31.263382 -104.704933 35,000 105 508 0
2019-11-17 15:23:54 GMT 31.265972 -104.716293 35,000 105 508 -64
2019-11-17 15:23:50 GMT 31.268509 -104.727119 35,000 105 508 -64
2019-11-17 15:23:47 GMT 31.269650 -104.732170 35,000 105 508 -64
2019-11-17 15:23:43 GMT 31.271988 -104.742249 35,000 105 508 -64
2019-11-17 15:23:37 GMT 31.276493 -104.761673 35,000 105 509 64
2019-11-17 15:23:32 GMT 31.278854 -104.771927 35,000 105 509 0
2019-11-17 15:23:29 GMT 31.281052 -104.781509 35,000 105 509 -64
2019-11-17 15:23:23 GMT 31.284714 -104.797401 35,000 105 509 64
2019-11-17 15:23:18 GMT 31.287525 -104.809624 35,000 105 509 64
2019-11-17 15:23:12 GMT 31.291204 -104.825554 35,000 105 509 -64
2019-11-17 15:23:06 GMT 31.295115 -104.842583 35,000 105 509 64
2019-11-17 15:23:01 GMT 31.297583 -104.853188 35,000 105 509 64
2019-11-17 15:22:58 GMT 31.300188 -104.864670 35,000 104 509 64
2019-11-17 15:22:51 GMT 31.303711 -104.880066 35,000 105 509 -64
2019-11-17 15:22:44 GMT 31.307775 -104.897789 35,000 104 509 0
2019-11-17 15:22:41 GMT 31.310120 -104.907852 35,000 105 509 0
2019-11-17 15:22:35 GMT 31.314011 -104.924873 35,000 104 509 0
2019-11-17 15:22:31 GMT 31.316437 -104.935478 35,000 104 509 0
2019-11-17 15:22:24 GMT 31.320328 -104.952499 35,000 105 509 64
2019-11-17 15:22:20 GMT 31.322626 -104.962608 35,000 105 509 0
2019-11-17 15:22:16 GMT 31.325327 -104.974312 35,000 105 509 -64
2019-11-17 15:22:09 GMT 31.329191 -104.991119 35,000 104 509 64
2019-11-17 15:22:04 GMT 31.332914 -105.007271 35,000 105 509 0
2019-11-17 15:22:00 GMT 31.335335 -105.017929 35,000 104 509 0
2019-11-17 15:21:55 GMT 31.338089 -105.030052 34,975 104 509 -64
2019-11-17 15:21:52 GMT 31.339554 -105.036514 35,000 104 508 -192
2019-11-17 15:21:48 GMT 31.341980 -105.047127 35,000 104 508 0
2019-11-17 15:21:45 GMT 31.344360 -105.057678 35,000 104 509 64
2019-11-17 15:21:42 GMT 31.345716 -105.063629 35,000 104 509 128
2019-11-17 15:21:38 GMT 31.347904 -105.073189 35,000 104 510 64
2019-11-17 15:21:34 GMT 31.350449 -105.084335 35,000 104 510 -64
2019-11-17 15:21:27 GMT 31.355301 -105.105659 35,000 104 510 -64
2019-11-17 15:21:22 GMT 31.358099 -105.117790 35,000 104 510 64
2019-11-17 15:21:16 GMT 31.361217 -105.131523 35,000 104 510 -64
2019-11-17 15:21:12 GMT 31.364384 -105.145477 35,000 104 510 -64
2019-11-17 15:21:07 GMT 31.366804 -105.156136 35,000 104 508 128
2019-11-17 15:21:01 GMT 31.370544 -105.172714 35,000 104 508 -64
2019-11-17 15:20:58 GMT 31.373089 -105.183762 35,000 104 508 0
2019-11-17 15:20:50 GMT 31.377045 -105.201202 35,000 104 507 128
2019-11-17 15:20:47 GMT 31.379242 -105.210892 35,000 104 507 -128
2019-11-17 15:20:41 GMT 31.383144 -105.228317 35,000 104 507 128
2019-11-17 15:20:37 GMT 31.385380 -105.238037 35,000 104 507 0
2019-11-17 15:20:30 GMT 31.389359 -105.255592 35,000 104 507 0
2019-11-17 15:20:25 GMT 31.392082 -105.267807 35,000 104 507 -64
2019-11-17 15:20:22 GMT 31.394623 -105.278915 35,000 104 507 -64
2019-11-17 15:20:19 GMT 31.395584 -105.283165 35,000 104 507 0
2019-11-17 15:20:14 GMT 31.398600 -105.296432 35,000 104 507 128
2019-11-17 15:20:11 GMT 31.400742 -105.305984 35,000 104 507 0
2019-11-17 15:20:05 GMT 31.404648 -105.323288 35,000 104 507 -64
2019-11-17 15:19:59 GMT 31.407909 -105.337791 35,000 104 507 0
2019-11-17 15:19:54 GMT 31.410416 -105.348923 35,000 104 506 0
2019-11-17 15:19:49 GMT 31.413940 -105.364540 35,000 104 507 64
2019-11-17 15:19:45 GMT 31.416367 -105.375206 35,000 104 507 -64
2019-11-17 15:19:39 GMT 31.420486 -105.393463 35,000 104 507 -64
2019-11-17 15:19:33 GMT 31.423458 -105.406784 35,000 104 507 64
2019-11-17 15:19:30 GMT 31.425600 -105.416237 35,000 104 507 -128
2019-11-17 15:19:26 GMT 31.427399 -105.424316 35,000 104 507 0
2019-11-17 15:19:23 GMT 31.429186 -105.432220 35,000 104 507 64
2019-11-17 15:19:18 GMT 31.432434 -105.446564 35,000 104 507 64
2019-11-17 15:19:14 GMT 31.435097 -105.458588 35,000 104 507 64
2019-11-17 15:19:08 GMT 31.438797 -105.475052 35,000 104 507 0
2019-11-17 15:19:02 GMT 31.441910 -105.488838 35,000 104 507 -64
2019-11-17 15:18:57 GMT 31.444920 -105.502205 35,000 104 506 128
2019-11-17 15:18:52 GMT 31.447403 -105.513397 35,000 104 506 64
2019-11-17 15:18:47 GMT 31.451157 -105.530251 35,000 104 506 0
2019-11-17 15:18:43 GMT 31.453537 -105.540863 35,000 104 506 -128
2019-11-17 15:18:38 GMT 31.456421 -105.553680 35,000 104 506 -64
2019-11-17 15:18:35 GMT 31.459488 -105.567413 35,000 104 506 0
2019-11-17 15:18:32 GMT 31.459488 -105.567413 35,000 104 505 64
2019-11-17 15:18:24 GMT 31.464249 -105.588631 35,000 104 505 64
2019-11-17 15:18:21 GMT 31.465961 -105.596298 35,000 104 505 64
2019-11-17 15:18:16 GMT 31.469313 -105.611298 35,000 104 505 0
2019-11-17 15:18:12 GMT 31.472107 -105.623825 35,000 104 504 -64
2019-11-17 15:18:05 GMT 31.475691 -105.639862 35,000 104 504 64
2019-11-17 15:18:01 GMT 31.478018 -105.650406 35,000 104 504 -64
2019-11-17 15:17:55 GMT 31.481556 -105.666283 35,000 104 504 0
2019-11-17 15:17:50 GMT 31.484482 -105.679482 35,000 104 504 64
2019-11-17 15:17:45 GMT 31.487778 -105.694237 35,000 104 504 128
2019-11-17 15:17:42 GMT 31.488865 -105.698967 35,000 104 504 128
2019-11-17 15:17:35 GMT 31.493240 -105.718796 35,000 104 505 -192
2019-11-17 15:17:32 GMT 31.495010 -105.726768 35,000 104 505 -256
2019-11-17 15:17:24 GMT 31.502335 -105.759674 35,000 104 505 128
2019-11-17 15:17:20 GMT 31.502335 -105.759674 35,000 104 505 128
2019-11-17 15:17:14 GMT 31.506088 -105.776688 35,000 104 505 -64
2019-11-17 15:17:11 GMT 31.507345 -105.782303 35,000 104 505 -192
2019-11-17 15:17:03 GMT 31.511948 -105.803185 35,000 104 506 128
2019-11-17 15:16:58 GMT 31.514654 -105.815369 35,000 104 506 128
2019-11-17 15:16:54 GMT 31.517578 -105.828445 35,000 104 506 -64
2019-11-17 15:16:50 GMT 31.524057 -105.857773 35,000 104 505 -64
2019-11-17 15:16:43 GMT 31.524057 -105.857773 35,000 104 505 -128
2019-11-17 15:16:40 GMT 31.525589 -105.864693 35,000 104 505 -64
2019-11-17 15:16:32 GMT 31.531586 -105.892044 35,000 104 504 64
2019-11-17 15:16:29 GMT 31.531586 -105.892044 35,000 104 504 -64
2019-11-17 15:16:22 GMT 31.537790 -105.920120 35,000 104 504 192
2019-11-17 15:16:12 GMT 31.542027 -105.939293 35,000 104 502 -64
2019-11-17 15:16:08 GMT 31.543991 -105.948273 35,000 104 502 -128
2019-11-17 15:16:01 GMT 31.548157 -105.967232 35,000 104 501 -64
2019-11-17 15:15:58 GMT 31.549894 -105.975052 35,000 104 500 -128
2019-11-17 15:15:51 GMT 31.554502 -105.996094 35,000 104 500 192
2019-11-17 15:15:47 GMT 31.556030 -106.002876 35,000 104 500 128
2019-11-17 15:15:40 GMT 31.560562 -106.023720 35,000 104 501 -128
2019-11-17 15:15:37 GMT 31.562027 -106.030182 35,000 104 501 -64
2019-11-17 15:15:29 GMT 31.566513 -106.050697 35,000 104 501 -64
2019-11-17 15:15:25 GMT 31.568609 -106.060196 35,000 104 501 128
2019-11-17 15:15:19 GMT 31.571915 -106.075478 35,000 104 501 -64
2019-11-17 15:15:16 GMT 31.574020 -106.084900 35,000 104 500 64
2019-11-17 15:15:09 GMT 31.578478 -106.105354 35,000 104 499 -64
2019-11-17 15:15:05 GMT 31.579971 -106.112206 35,000 104 499 -64
2019-11-17 15:15:00 GMT 31.583784 -106.129524 35,000 104 499 64
2019-11-17 15:14:57 GMT 31.584669 -106.133698 35,000 104 499 64
2019-11-17 15:14:54 GMT 31.586485 -106.142044 35,000 104 498 -64
2019-11-17 15:14:47 GMT 31.590271 -106.159218 35,000 104 498 64
2019-11-17 15:14:44 GMT 31.591978 -106.167206 35,000 104 498 128
2019-11-17 15:14:38 GMT 31.596493 -106.187912 35,000 104 498 -128
2019-11-17 15:14:34 GMT 31.597891 -106.194290 35,000 104 498 -192
2019-11-17 15:14:27 GMT 31.602127 -106.213776 35,000 104 498 192
2019-11-17 15:14:23 GMT 31.603958 -106.222122 35,000 104 498 0
2019-11-17 15:14:16 GMT 31.608131 -106.241196 35,000 104 498 -64
2019-11-17 15:14:13 GMT 31.609863 -106.249207 35,000 104 497 128
2019-11-17 15:14:07 GMT 31.613708 -106.266876 35,000 104 498 0
2019-11-17 15:14:03 GMT 31.615673 -106.275970 35,000 104 498 -128
2019-11-17 15:13:55 GMT 31.620003 -106.295799 35,000 104 498 -128
2019-11-17 15:13:52 GMT 31.621586 -106.303108 35,000 104 497 0
2019-11-17 15:13:47 GMT 31.624983 -106.318764 35,000 104 497 128
2019-11-17 15:13:42 GMT 31.627579 -106.330803 35,000 104 497 64
2019-11-17 15:13:35 GMT 31.631548 -106.349030 35,000 104 497 -64
2019-11-17 15:13:31 GMT 31.633484 -106.357887 35,000 104 497 -64
2019-11-17 15:13:24 GMT 31.638245 -106.379860 35,000 104 498 -64
2019-11-17 15:13:20 GMT 31.639572 -106.386162 35,000 104 498 0
2019-11-17 15:13:16 GMT 31.642731 -106.400650 35,000 104 498 64
2019-11-17 15:13:13 GMT 31.644104 -106.407112 35,000 104 498 128
2019-11-17 15:13:10 GMT 31.645327 -106.412697 35,000 104 498 128
2019-11-17 15:13:03 GMT 31.650076 -106.434830 35,000 104 498 -64
2019-11-17 15:13:00 GMT 31.651337 -106.440552 35,000 104 498 0
2019-11-17 15:12:52 GMT 31.657104 -106.467239 35,000 104 497 0
2019-11-17 15:12:42 GMT 31.662039 -106.490204 35,000 104 495 64
2019-11-17 15:12:39 GMT 31.663010 -106.494736 35,000 104 495 64
2019-11-17 15:12:32 GMT 31.666626 -106.511589 35,000 104 495 0
2019-11-17 15:12:29 GMT 31.668743 -106.521461 35,000 104 495 64
2019-11-17 15:12:23 GMT 31.674866 -106.549934 35,000 104 496 -64
2019-11-17 15:12:18 GMT 31.674866 -106.549934 35,000 104 496 -128
2019-11-17 15:12:12 GMT 31.678425 -106.566338 35,000 104 496 0
2019-11-17 15:12:08 GMT 31.680542 -106.576271 35,000 104 496 0
2019-11-17 15:12:00 GMT 31.686539 -106.604218 35,000 104 496 0
2019-11-17 15:11:52 GMT 31.689783 -106.619400 35,000 104 496 0
2019-11-17 15:11:47 GMT 31.692299 -106.631104 35,000 104 497 -64
2019-11-17 15:11:39 GMT 31.697067 -106.653389 35,000 104 497 64
2019-11-17 15:11:31 GMT 31.701469 -106.674004 35,000 104 497 128
2019-11-17 15:11:26 GMT 31.704025 -106.686028 35,000 104 497 -64
2019-11-17 15:11:21 GMT 31.706726 -106.698624 35,000 104 498 -128
2019-11-17 15:11:16 GMT 31.709755 -106.712784 35,000 104 497 64
2019-11-17 15:11:08 GMT 31.713867 -106.732178 35,000 104 498 -64
2019-11-17 15:11:05 GMT 31.715574 -106.740036 35,000 104 498 -64
2019-11-17 15:11:01 GMT 31.718460 -106.753708 35,000 104 498 128
2019-11-17 15:10:58 GMT 31.719530 -106.758766 35,000 104 498 64
2019-11-17 15:10:55 GMT 31.721512 -106.767830 35,000 104 498 64
2019-11-17 15:10:50 GMT 31.724234 -106.780792 35,000 104 498 -64
2019-11-17 15:10:47 GMT 31.725630 -106.787163 35,000 104 499 0
2019-11-17 15:10:44 GMT 31.727398 -106.795677 35,000 104 499 -128
2019-11-17 15:10:38 GMT 31.733093 -106.822327 35,000 104 499 128
2019-11-17 15:10:34 GMT 31.733093 -106.822327 35,000 104 499 128
2019-11-17 15:10:27 GMT 31.737036 -106.840889 35,000 103 500 -64
2019-11-17 15:10:23 GMT 31.738907 -106.849854 35,000 103 500 0
2019-11-17 15:10:17 GMT 31.742752 -106.867729 35,000 103 500 64
2019-11-17 15:10:13 GMT 31.744856 -106.877747 35,000 103 500 64
2019-11-17 15:10:07 GMT 31.748749 -106.896057 35,000 104 499 0
2019-11-17 15:10:02 GMT 31.750628 -106.904991 35,000 104 499 -64
2019-11-17 15:09:56 GMT 31.754398 -106.922791 35,000 103 499 64
2019-11-17 15:09:51 GMT 31.756680 -106.933449 35,000 103 499 128
2019-11-17 15:09:48 GMT 31.759232 -106.945549 35,000 103 499 64
2019-11-17 15:09:41 GMT 31.762451 -106.960800 35,000 103 499 0
2019-11-17 15:09:36 GMT 31.765757 -106.976570 35,000 103 499 -128
2019-11-17 15:09:33 GMT 31.767340 -106.984039 35,000 103 499 -128
2019-11-17 15:09:25 GMT 31.771297 -107.002937 35,000 103 498 64
2019-11-17 15:09:21 GMT 31.773764 -107.014572 35,000 103 498 0
2019-11-17 15:09:17 GMT 31.776306 -107.026665 35,000 103 498 64
2019-11-17 15:09:10 GMT 31.779648 -107.042374 35,000 103 498 -64
2019-11-17 15:09:06 GMT 31.782190 -107.054482 35,000 103 498 -128
2019-11-17 15:08:59 GMT 31.785496 -107.070229 35,000 103 498 0
2019-11-17 15:08:54 GMT 31.788521 -107.084747 35,000 103 498 0
2019-11-17 15:08:49 GMT 31.791138 -107.097031 35,000 103 498 -64
2019-11-17 15:08:45 GMT 31.793455 -107.108124 35,000 103 498 -64
2019-11-17 15:08:38 GMT 31.797043 -107.125267 35,000 103 498 0
2019-11-17 15:08:34 GMT 31.799423 -107.136803 35,000 103 498 64
2019-11-17 15:08:28 GMT 31.802994 -107.153778 35,000 103 497 0
2019-11-17 15:08:25 GMT 31.804962 -107.163223 35,000 103 497 -64
2019-11-17 15:08:18 GMT 31.808399 -107.179482 35,000 103 497 -64
2019-11-17 15:08:14 GMT 31.810684 -107.190475 35,000 103 497 -128
2019-11-17 15:08:07 GMT 31.814264 -107.207504 35,000 103 497 0
2019-11-17 15:08:03 GMT 31.816315 -107.217499 35,000 103 496 128
2019-11-17 15:07:58 GMT 31.819525 -107.232780 35,000 103 496 64
2019-11-17 15:07:54 GMT 31.822132 -107.245232 35,000 103 496 -64
2019-11-17 15:07:46 GMT 31.825562 -107.261551 35,000 103 497 -64
2019-11-17 15:07:43 GMT 31.827625 -107.271629 35,000 103 497 64
2019-11-17 15:07:36 GMT 31.831238 -107.288742 35,000 103 497 0
2019-11-17 15:07:33 GMT 31.833490 -107.299652 35,000 103 496 -64
2019-11-17 15:07:25 GMT 31.836983 -107.316528 35,000 103 495 64
2019-11-17 15:07:22 GMT 31.839170 -107.327011 35,000 103 495 0
2019-11-17 15:07:15 GMT 31.842663 -107.343765 35,000 103 495 128
2019-11-17 15:07:12 GMT 31.844513 -107.352684 35,000 103 495 0
2019-11-17 15:07:05 GMT 31.848450 -107.371475 35,000 103 495 -192
2019-11-17 15:07:02 GMT 31.850555 -107.381798 35,000 103 495 -64
2019-11-17 15:06:54 GMT 31.854080 -107.398605 35,000 103 494 0
2019-11-17 15:06:51 GMT 31.855883 -107.407501 35,000 103 494 128
2019-11-17 15:06:44 GMT 31.859560 -107.425041 35,000 103 492 -128
2019-11-17 15:06:41 GMT 31.861816 -107.436073 35,000 103 492 -128
2019-11-17 15:06:33 GMT 31.865067 -107.451675 35,000 103 491 0
2019-11-17 15:06:28 GMT 31.868172 -107.466751 35,000 103 491 64
2019-11-17 15:06:23 GMT 31.870779 -107.479195 35,000 103 491 64
2019-11-17 15:06:20 GMT 31.872688 -107.488556 35,000 103 491 -128
2019-11-17 15:06:13 GMT 31.876648 -107.507538 35,000 103 491 -64
2019-11-17 15:06:10 GMT 31.878275 -107.515511 35,000 103 491 0
2019-11-17 15:06:02 GMT 31.882004 -107.533684 35,000 103 490 64
2019-11-17 15:05:59 GMT 31.883814 -107.542534 35,000 103 490 64
2019-11-17 15:05:51 GMT 31.887543 -107.560654 35,000 103 490 0
2019-11-17 15:05:48 GMT 31.889355 -107.569435 35,000 103 490 0
2019-11-17 15:05:41 GMT 31.893127 -107.587570 35,000 103 490 -64
2019-11-17 15:05:38 GMT 31.894939 -107.596397 35,000 103 491 64
2019-11-17 15:05:31 GMT 31.898804 -107.614952 35,000 103 490 0
2019-11-17 15:05:27 GMT 31.900635 -107.623825 35,000 103 490 -64
2019-11-17 15:05:21 GMT 31.905487 -107.649918 35,000 101 492 0
2019-11-17 15:05:18 GMT 31.905487 -107.649918 35,000 101 491 0
2019-11-17 15:05:10 GMT 31.908737 -107.669914 35,000 99 492 64
2019-11-17 15:05:07 GMT 31.909790 -107.677277 35,000 99 492 64
2019-11-17 15:04:59 GMT 31.912443 -107.696846 35,000 98 492 -64
2019-11-17 15:04:56 GMT 31.913544 -107.705841 35,000 97 493 -64
2019-11-17 15:04:50 GMT 31.915283 -107.722870 35,000 95 493 64
2019-11-17 15:04:47 GMT 31.916121 -107.733002 35,000 94 492 64
2019-11-17 15:04:39 GMT 31.917332 -107.751106 35,000 94 490 64
2019-11-17 15:04:36 GMT 31.917891 -107.760406 35,000 94 490 -64
2019-11-17 15:04:29 GMT 31.919054 -107.778679 35,000 94 487 -64
2019-11-17 15:04:26 GMT 31.919706 -107.789223 35,000 94 486 -64
2019-11-17 15:04:18 GMT 31.920731 -107.805542 35,000 94 484 64
2019-11-17 15:04:15 GMT 31.921335 -107.815231 35,000 94 483 64
2019-11-17 15:04:05 GMT 31.923012 -107.841576 35,000 94 479 -128
2019-11-17 15:03:55 GMT 31.924713 -107.869041 35,000 94 476 192
2019-11-17 15:03:47 GMT 31.925898 -107.888100 34,950 94 475 768
2019-11-17 15:03:44 GMT 31.926315 -107.895325 34,900 94 475 896
2019-11-17 15:03:34 GMT 31.928040 -107.922958 34,775 94 475 640
2019-11-17 15:03:26 GMT 31.929245 -107.941940 34,675 94 474 896
2019-11-17 15:03:23 GMT 31.929668 -107.948799 34,650 94 474 1024
2019-11-17 15:03:15 GMT 31.930847 -107.967865 34,475 94 475 1216
2019-11-17 15:03:12 GMT 31.931396 -107.977150 34,425 94 476 1216
2019-11-17 15:03:03 GMT 31.933020 -108.003456 34,200 94 478 1408
2019-11-17 15:02:55 GMT 31.934097 -108.021645 34,000 94 480 1344
2019-11-17 15:02:52 GMT 31.934601 -108.029938 33,975 94 480 1344
2019-11-17 15:02:44 GMT 31.936249 -108.057076 33,775 94 482 1408
2019-11-17 15:02:31 GMT 31.937954 -108.084900 33,475 94 485 1472
2019-11-17 15:02:21 GMT 31.939583 -108.112030 33,225 94 488 1344
2019-11-17 15:02:11 GMT 31.941238 -108.139084 33,000 93 490 1280
2019-11-17 15:02:00 GMT 31.942936 -108.167351 32,775 93 491 1216
2019-11-17 15:01:50 GMT 31.944517 -108.194260 32,650 93 492 1088
2019-11-17 15:01:39 GMT 31.946148 -108.222000 32,425 93 493 1088
2019-11-17 15:01:31 GMT 31.947418 -108.242851 32,300 93 493 1088
2019-11-17 15:01:28 GMT 31.947870 -108.250648 32,225 93 493 1152
2019-11-17 15:01:19 GMT 31.949478 -108.278061 32,025 93 493 1088
2019-11-17 15:01:08 GMT 31.951126 -108.305969 31,825 93 494 1152
2019-11-17 15:01:00 GMT 31.952316 -108.326241 31,700 93 494 1088
2019-11-17 15:00:57 GMT 31.952774 -108.333710 31,650 93 494 1024
2019-11-17 15:00:50 GMT 31.953827 -108.351944 31,525 93 494 896
2019-11-17 15:00:47 GMT 31.954433 -108.362244 31,500 93 493 832
2019-11-17 15:00:39 GMT 31.955597 -108.382484 31,400 93 493 768
2019-11-17 15:00:36 GMT 31.955978 -108.389412 31,375 93 492 704
2019-11-17 15:00:27 GMT 31.957554 -108.416733 31,250 93 491 704
2019-11-17 15:00:19 GMT 31.958715 -108.436905 31,150 93 489 704
2019-11-17 15:00:16 GMT 31.959229 -108.445312 31,150 93 489 704
2019-11-17 15:00:08 GMT 31.960327 -108.464996 31,050 93 488 704
2019-11-17 14:59:55 GMT 31.962349 -108.499405 30,900 93 485 512
2019-11-17 14:59:45 GMT 31.963884 -108.526703 30,825 93 483 768
2019-11-17 14:59:35 GMT 31.965372 -108.553551 30,675 93 481 896
2019-11-17 14:59:24 GMT 31.967010 -108.581451 30,500 93 479 832
2019-11-17 14:59:13 GMT 31.968493 -108.607925 30,375 93 478 896
2019-11-17 14:59:04 GMT 31.970030 -108.634827 30,225 93 477 896
2019-11-17 14:58:53 GMT 31.971518 -108.661514 30,075 93 475 960
2019-11-17 14:58:43 GMT 31.973007 -108.688477 29,900 93 473 896
2019-11-17 14:58:32 GMT 31.974499 -108.715157 29,775 93 471 896
2019-11-17 14:58:22 GMT 31.975895 -108.740715 29,625 93 469 960
2019-11-17 14:58:12 GMT 31.977385 -108.768066 29,450 93 467 832
2019-11-17 14:58:07 GMT 31.977997 -108.778877 29,400 93 466 832
2019-11-17 14:58:01 GMT 31.978821 -108.793930 29,325 93 465 896
2019-11-17 14:57:51 GMT 31.980316 -108.820755 29,150 93 464 960
2019-11-17 14:57:40 GMT 31.981750 -108.847374 28,975 93 462 1088
2019-11-17 14:57:30 GMT 31.983156 -108.873108 28,775 93 461 1152
2019-11-17 14:57:20 GMT 31.984543 -108.898628 28,600 93 461 1152
2019-11-17 14:57:09 GMT 31.985950 -108.925125 28,375 93 460 1152
2019-11-17 14:56:58 GMT 31.987335 -108.950645 28,225 93 459 1088
2019-11-17 14:56:49 GMT 31.988708 -108.976578 28,000 93 458 1088
2019-11-17 14:56:38 GMT 31.990093 -109.001976 27,800 93 456 1152
2019-11-17 14:56:33 GMT 31.990885 -109.016830 27,700 93 456 1216
2019-11-17 14:56:28 GMT 31.991489 -109.028488 27,600 93 455 1152
2019-11-17 14:56:21 GMT 31.992233 -109.042442 27,500 93 455 1152
2019-11-17 14:56:16 GMT 31.992886 -109.055283 27,400 93 454 1216
2019-11-17 14:56:07 GMT 31.994247 -109.080673 27,200 93 453 1088
2019-11-17 14:56:02 GMT 31.994795 -109.090988 27,125 93 452 1088
2019-11-17 14:55:55 GMT 31.995621 -109.107040 27,000 93 451 1024
2019-11-17 14:55:51 GMT 31.996284 -109.119461 26,925 93 450 960
2019-11-17 14:55:45 GMT 31.996937 -109.132187 26,850 93 449 1024
2019-11-17 14:55:35 GMT 31.998331 -109.158531 26,625 93 448 1152
2019-11-17 14:55:31 GMT 31.998871 -109.169548 26,550 93 448 1088
2019-11-17 14:55:24 GMT 31.999636 -109.183868 26,450 93 447 960
2019-11-17 14:55:20 GMT 32.000099 -109.192612 26,400 93 446 1024
2019-11-17 14:55:14 GMT 32.000984 -109.210045 26,275 93 445 1088
2019-11-17 14:55:09 GMT 32.001434 -109.219040 26,200 93 444 1216
2019-11-17 14:55:05 GMT 32.002289 -109.235153 26,075 93 444 1216
2019-11-17 14:54:59 GMT 32.002800 -109.244850 26,000 93 444 1216
2019-11-17 14:54:53 GMT 32.003548 -109.260101 25,875 93 443 1088
2019-11-17 14:54:42 GMT 32.004848 -109.285324 25,675 93 441 1088
2019-11-17 14:54:37 GMT 32.005371 -109.295395 25,600 93 441 1152
2019-11-17 14:54:32 GMT 32.006153 -109.310997 25,500 93 440 1024
2019-11-17 14:54:23 GMT 32.007202 -109.331596 25,350 93 439 1152
2019-11-17 14:54:14 GMT 32.008255 -109.352692 25,125 93 438 1152
2019-11-17 14:54:11 GMT 32.008667 -109.360771 25,100 93 438 1216
2019-11-17 14:54:06 GMT 32.009171 -109.370926 25,000 93 437 1152
2019-11-17 14:54:02 GMT 32.009644 -109.379768 24,925 93 437 1152
2019-11-17 14:53:59 GMT 32.009949 -109.386147 24,900 93 436 1088
2019-11-17 14:53:55 GMT 32.010452 -109.396416 24,800 93 436 1152
2019-11-17 14:53:50 GMT 32.011185 -109.410645 24,700 93 435 1152
2019-11-17 14:53:45 GMT 32.011597 -109.419159 24,625 93 434 1152
2019-11-17 14:53:42 GMT 32.012157 -109.430107 24,550 93 434 1216
2019-11-17 14:53:38 GMT 32.012440 -109.435768 24,500 93 433 1216
2019-11-17 14:53:29 GMT 32.013603 -109.460258 24,275 93 432 1088
2019-11-17 14:53:21 GMT 32.014904 -109.485657 24,100 93 430 1024
2019-11-17 14:53:14 GMT 32.015278 -109.494064 24,050 93 428 1088
2019-11-17 14:53:10 GMT 32.015762 -109.503860 23,975 93 429 1088
2019-11-17 14:53:07 GMT 32.016113 -109.510818 23,925 93 428 1024
2019-11-17 14:53:04 GMT 32.016449 -109.517868 23,875 93 428 1088
2019-11-17 14:53:00 GMT 32.016861 -109.526276 23,775 93 427 1280
2019-11-17 14:52:57 GMT 32.017273 -109.534622 23,725 93 427 1344
2019-11-17 14:52:49 GMT 32.018116 -109.551628 23,550 93 426 1152
2019-11-17 14:52:46 GMT 32.018509 -109.559677 23,500 93 426 1088
2019-11-17 14:52:36 GMT 32.019653 -109.582802 23,300 93 424 1216
2019-11-17 14:52:28 GMT 32.020447 -109.598885 23,150 93 423 1408
2019-11-17 14:52:25 GMT 32.020817 -109.606949 23,075 93 423 1280
2019-11-17 14:52:20 GMT 32.021484 -109.620537 22,975 93 422 1088
2019-11-17 14:52:15 GMT 32.022026 -109.632011 22,875 93 421 1152
2019-11-17 14:52:07 GMT 32.022766 -109.647072 22,750 93 419 1024
2019-11-17 14:52:04 GMT 32.023144 -109.655716 22,675 93 418 1088
2019-11-17 14:51:54 GMT 32.024357 -109.680267 22,525 93 415 896
2019-11-17 14:51:49 GMT 32.024826 -109.689697 22,475 93 414 832
2019-11-17 14:51:46 GMT 32.025051 -109.694672 22,450 93 412 768
2019-11-17 14:51:43 GMT 32.025471 -109.703476 22,400 93 411 832
2019-11-17 14:51:36 GMT 32.026154 -109.717491 22,300 93 409 960
2019-11-17 14:51:33 GMT 32.026611 -109.727158 22,225 93 407 960
2019-11-17 14:51:28 GMT 32.026962 -109.734810 22,100 93 405 1024
2019-11-17 14:51:25 GMT 32.027252 -109.741333 22,125 93 405 1024
2019-11-17 14:51:21 GMT 32.027706 -109.750618 22,050 93 404 1024
2019-11-17 14:51:15 GMT 32.028358 -109.764572 21,925 93 403 1280
2019-11-17 14:51:12 GMT 32.028778 -109.773483 21,850 93 402 1216
2019-11-17 14:51:07 GMT 32.029266 -109.783524 21,750 93 401 1344
2019-11-17 14:51:04 GMT 32.029430 -109.787445 21,725 93 401 1280
2019-11-17 14:50:58 GMT 32.030174 -109.803139 21,550 93 400 1152
2019-11-17 14:50:54 GMT 32.030453 -109.810089 21,500 93 399 960
2019-11-17 14:50:51 GMT 32.030872 -109.818550 21,450 93 397 896
2019-11-17 14:50:44 GMT 32.031555 -109.831970 21,350 93 395 1280
2019-11-17 14:50:39 GMT 32.032013 -109.842461 21,250 93 394 1152
2019-11-17 14:50:36 GMT 32.032471 -109.851852 21,175 93 393 1024
2019-11-17 14:50:33 GMT 32.032654 -109.855263 21,125 93 392 1088
2019-11-17 14:50:29 GMT 32.033058 -109.864182 21,075 93 391 1024
2019-11-17 14:50:26 GMT 32.033340 -109.870590 20,975 93 389 1216
2019-11-17 14:50:23 GMT 32.033615 -109.876465 20,975 93 389 1280
2019-11-17 14:50:19 GMT 32.034073 -109.886734 20,850 93 388 1344
2019-11-17 14:50:15 GMT 32.034641 -109.898819 20,750 93 387 1024
2019-11-17 14:50:08 GMT 32.035110 -109.909019 20,675 93 385 896
2019-11-17 14:50:05 GMT 32.035629 -109.920357 20,575 93 383 1024
2019-11-17 14:49:58 GMT 32.036087 -109.930298 20,500 93 382 1088
2019-11-17 14:49:55 GMT 32.036407 -109.937607 20,450 93 380 1216
2019-11-17 14:49:52 GMT 32.036591 -109.941940 20,400 93 380 1280
2019-11-17 14:49:47 GMT 32.037094 -109.952652 20,300 93 379 1152
2019-11-17 14:49:44 GMT 32.037460 -109.960892 20,225 93 377 1152
2019-11-17 14:49:41 GMT 32.037598 -109.964188 20,225 93 377 1152
2019-11-17 14:49:37 GMT 32.038090 -109.974434 20,100 93 376 1280
2019-11-17 14:49:30 GMT 32.038601 -109.985924 19,975 93 375 1344
2019-11-17 14:49:25 GMT 32.039062 -109.995995 19,875 93 373 1152
2019-11-17 14:49:20 GMT 32.039577 -110.007057 19,775 93 372 1088
2019-11-17 14:49:16 GMT 32.040024 -110.017090 19,700 93 370 1024
2019-11-17 14:49:10 GMT 32.040527 -110.027580 19,600 92 369 1152
2019-11-17 14:49:05 GMT 32.040974 -110.038391 19,500 93 367 1152
2019-11-17 14:48:59 GMT 32.041534 -110.049995 19,400 93 365 1024
2019-11-17 14:48:55 GMT 32.041950 -110.059013 19,325 93 363 1024
2019-11-17 14:48:48 GMT 32.042404 -110.069824 19,225 93 361 896
2019-11-17 14:48:43 GMT 32.042885 -110.080376 19,150 93 358 896
2019-11-17 14:48:38 GMT 32.043320 -110.090096 19,075 93 356 1024
2019-11-17 14:48:33 GMT 32.043766 -110.100327 18,975 93 354 1280
2019-11-17 14:48:27 GMT 32.044231 -110.110527 18,850 93 353 1472
2019-11-17 14:48:23 GMT 32.044693 -110.120911 18,700 93 352 1536
2019-11-17 14:48:17 GMT 32.045105 -110.130081 18,600 92 351 1472
2019-11-17 14:48:12 GMT 32.045563 -110.140793 18,450 92 350 1472
2019-11-17 14:48:07 GMT 32.046001 -110.150162 18,325 92 349 1600
2019-11-17 14:48:02 GMT 32.046478 -110.161339 18,175 92 349 1600
2019-11-17 14:47:56 GMT 32.046844 -110.169693 18,075 92 348 1536
2019-11-17 14:47:51 GMT 32.047306 -110.180649 17,925 92 347 1536
2019-11-17 14:47:46 GMT 32.047726 -110.189674 17,800 92 346 1472
2019-11-17 14:47:41 GMT 32.048191 -110.200829 17,650 92 345 1344
2019-11-17 14:47:35 GMT 32.048584 -110.209457 17,550 93 343 1280
2019-11-17 14:47:29 GMT 32.049088 -110.220779 17,425 93 341 1280
2019-11-17 14:47:25 GMT 32.049408 -110.228195 17,350 92 340 1280
2019-11-17 14:47:20 GMT 32.049911 -110.240005 17,200 92 338 1344
2019-11-17 14:47:14 GMT 32.050232 -110.248077 17,125 92 336 1344
2019-11-17 14:47:08 GMT 32.050735 -110.259613 16,975 92 334 1344
2019-11-17 14:47:03 GMT 32.051285 -110.272797 16,800 93 332 1344
2019-11-17 14:46:59 GMT 32.051540 -110.278236 16,750 92 331 1344
2019-11-17 14:46:53 GMT 32.051971 -110.287956 16,650 92 329 1408
2019-11-17 14:46:47 GMT 32.052425 -110.298309 16,475 92 328 1472
2019-11-17 14:46:43 GMT 32.052704 -110.305428 16,375 92 327 1664
2019-11-17 14:46:35 GMT 32.053406 -110.321793 16,100 92 325 1856
2019-11-17 14:46:32 GMT 32.053543 -110.325325 16,000 92 325 1984
2019-11-17 14:46:25 GMT 32.054054 -110.337372 15,800 92 325 1984
2019-11-17 14:46:21 GMT 32.054337 -110.343765 15,725 92 325 1984
2019-11-17 14:46:16 GMT 32.054707 -110.352959 15,525 92 325 1920
2019-11-17 14:46:12 GMT 32.055084 -110.361679 15,375 92 325 1856
2019-11-17 14:46:06 GMT 32.055546 -110.372688 15,175 92 324 1728
2019-11-17 14:46:01 GMT 32.055862 -110.380135 15,075 92 323 1728
2019-11-17 14:45:54 GMT 32.056335 -110.391579 14,875 92 322 1728
2019-11-17 14:45:51 GMT 32.056618 -110.398026 14,775 93 321 1856
2019-11-17 14:45:45 GMT 32.057129 -110.409180 14,575 93 320 1920
2019-11-17 14:45:40 GMT 32.057407 -110.416077 14,450 92 320 1856
2019-11-17 14:45:34 GMT 32.057873 -110.427399 14,225 92 320 1920
2019-11-17 14:45:29 GMT 32.058243 -110.436111 14,100 92 320 2048
2019-11-17 14:45:24 GMT 32.058655 -110.445885 13,875 92 321 2368
2019-11-17 14:45:18 GMT 32.058975 -110.454239 13,725 92 322 2432
2019-11-17 14:45:12 GMT 32.059433 -110.464783 13,450 92 323 2176
2019-11-17 14:45:09 GMT 32.059753 -110.472366 13,300 92 324 2112
2019-11-17 14:45:03 GMT 32.060200 -110.482666 13,100 92 324 1920
2019-11-17 14:45:00 GMT 32.060394 -110.487907 13,000 92 323 1856
2019-11-17 14:44:51 GMT 32.060898 -110.501045 12,775 92 321 1856
2019-11-17 14:44:48 GMT 32.061226 -110.508728 12,650 92 320 1920
2019-11-17 14:44:42 GMT 32.061737 -110.519661 12,450 92 318 1920
2019-11-17 14:44:37 GMT 32.061996 -110.527077 12,325 92 318 1856
2019-11-17 14:44:30 GMT 32.062408 -110.537460 12,125 92 316 2176
2019-11-17 14:44:27 GMT 32.062714 -110.544716 11,950 92 316 2304
2019-11-17 14:44:21 GMT 32.063412 -110.560463 11,625 92 313 1728
2019-11-17 14:44:15 GMT 32.063644 -110.565636 11,550 92 312 1792
2019-11-17 14:44:08 GMT 32.064064 -110.575989 11,400 92 310 2176
2019-11-17 14:44:04 GMT 32.064423 -110.584587 11,250 92 310 2240
2019-11-17 14:43:58 GMT 32.064789 -110.592667 11,000 92 308 1920
2019-11-17 14:43:54 GMT 32.065063 -110.599312 10,900 92 308 1984
2019-11-17 14:43:45 GMT 32.065704 -110.614693 10,525 92 303 1472
2019-11-17 14:43:42 GMT 32.065979 -110.621284 10,525 92 295 1280
2019-11-17 14:43:35 GMT 32.066437 -110.632378 10,375 92 295 1280
2019-11-17 14:43:23 GMT 32.067322 -110.652283 10,025 92 287 1984
2019-11-17 14:43:12 GMT 32.067883 -110.667747 9,700 92 282 1984
2019-11-17 14:43:02 GMT 32.068542 -110.683357 9,325 93 279 2688
2019-11-17 14:42:51 GMT 32.069279 -110.699478 8,850 93 279 2944
2019-11-17 14:42:41 GMT 32.070007 -110.716263 8,275 92 280 2752
2019-11-17 14:42:30 GMT 32.070629 -110.731201 7,875 92 280 2560
2019-11-17 14:42:21 GMT 32.071289 -110.746635 7,450 93 278 2496
2019-11-17 14:42:09 GMT 32.071980 -110.762085 7,050 92 275 1536
2019-11-17 14:42:00 GMT 32.072678 -110.778511 6,825 92 263 1344
2019-11-17 14:41:49 GMT 32.073093 -110.792580 6,500 91 256 2496
2019-11-17 14:41:37 GMT 32.073376 -110.808105 6,125 90 253 1856
2019-11-17 14:41:27 GMT 32.073578 -110.822388 5,875 90 243 1344
2019-11-17 14:41:19 GMT 32.073715 -110.833870 5,575 90 234 1600
2019-11-17 14:41:07 GMT 32.073669 -110.848755 5,225 89 223 1984
2019-11-17 14:40:56 GMT 32.073608 -110.861076 4,875 90 220 2304
2019-11-17 14:40:49 GMT 32.073669 -110.869461 4,650 92 215 1280
2019-11-17 14:40:46 GMT 32.073853 -110.873032 4,600 95 210 704
2019-11-17 14:40:38 GMT 32.074818 -110.880806 4,475 108 195 1024
2019-11-17 14:40:35 GMT 32.075794 -110.884621 4,450 110 195 960
2019-11-17 14:40:28 GMT 32.078659 -110.891434 4,300 121 186 1344
2019-11-17 14:40:24 GMT 32.080544 -110.894653 4,225 127 182 1280
2019-11-17 14:40:16 GMT 32.084965 -110.900986 4,050 130 173 1472
2019-11-17 14:40:05 GMT 32.090424 -110.908356 3,750 132 165 1600
2019-11-17 14:39:55 GMT 32.095814 -110.915337 3,475 132 162 1856
2019-11-17 14:39:48 GMT 32.098747 -110.919144 3,275 133 156 1984
2019-11-17 14:39:43 GMT 32.100979 -110.921890 3,125 135 155 2368
2019-11-17 14:39:34 GMT 32.106426 -110.928116 2,700 135 157 2240
2019-11-17 14:39:22 GMT 32.112015 -110.934563 2,450 135 135 128
2019-11-17 14:39:15 GMT 32.115692 -110.938934 2,450 135 125 128
2019-11-17 14:39:03 GMT 32.119720 -110.943619 2,450 135 90 128
2019-11-17 14:38:54 GMT 32.122128 -110.946457 0 135 50
2019-11-17 14:38:49 GMT 32.122776 -110.947235 0 135 28
2019-11-17 14:38:43 GMT 32.123058 -110.947548 0 135 3
2019-11-17 14:38:40 GMT 32.123070 -110.947578 0 135 0
2019-11-17 14:38:33 GMT 32.123093 -110.947594 0 135 3
2019-11-17 14:38:28 GMT 32.123165 -110.947670 0 157 6
2019-11-17 14:38:19 GMT 32.123383 -110.947662 0 196 7
2019-11-17 14:38:11 GMT 32.123737 -110.947273 0 225 16
2019-11-17 14:38:00 GMT 32.124149 -110.946632 0 264 12
2019-11-17 14:37:50 GMT 32.123886 -110.946068 0 315 17
2019-11-17 14:37:39 GMT 32.123245 -110.945305 0 315 21
2019-11-17 14:37:29 GMT 32.122475 -110.944412 0 315 26
2019-11-17 14:37:18 GMT 32.121452 -110.943207 0 315 25
2019-11-17 14:37:08 GMT 32.120731 -110.942352 0 315 25
2019-11-17 14:36:58 GMT 32.119789 -110.941261 0 315 26
2019-11-17 14:36:47 GMT 32.118988 -110.940323 0 315 23
2019-11-17 14:36:31 GMT 32.117878 -110.939034 0 317 18
2019-11-17 14:36:25 GMT 32.117645 -110.938721 0 303 16
2019-11-17 14:36:16 GMT 32.117569 -110.937897 0 253 14
2019-11-17 14:36:02 GMT 32.117764 -110.937057 0 253 11
2019-11-17 14:35:53 GMT 32.117958 -110.936607 0 227 10
2019-11-17 14:35:43 GMT 32.118233 -110.936302 0 219 8
2019-11-17 14:35:30 GMT 32.118530 -110.935997 0 225 5
2019-11-17 14:35:21 GMT 32.118622 -110.935867 0 255 4
2019-11-17 14:32:50 GMT 32.118610 -110.935638 0 309 0
2019-11-17 14:32:44 GMT 32.118610 -110.935654 0 309 0
2019-11-17 14:32:34 GMT 32.118656 -110.935707 0 309 3
2019-11-17 14:32:23 GMT 32.118729 -110.935806 0 309 3
2019-11-17 14:32:12 GMT 32.118809 -110.935921 0 309 3
2019-11-17 14:32:03 GMT 32.118874 -110.936028 0 306 3
2019-11-17 14:31:52 GMT 32.118931 -110.936134 0 300 3
2019-11-17 14:31:40 GMT 32.118977 -110.936264 0 284 2
2019-11-17 14:31:28 GMT 32.118988 -110.936371 0 278 0
2019-11-17 14:31:19 GMT 32.118999 -110.936455 0 278 0

Making use of Plane Finder data

You are free to use the raw flight data, aircraft information and images provided in this report for your own purposes provided the data is correctly attributed to Plane Finder. We ask that you please credit Plane Finder and link to planefinder.net in close proximity to the content.

Optionally one of the following logos (no smaller then 150x24px) can be used and must link to planefinder.net

Embedding the Plane Finder map

You are welcome to embed the Plane Finder playback map on your website to offer visitors a more interactive experience. We suggest using the following HTML code:

<iframe src="//planefinder.net/data/report/UA5484-N110SY-7700-squawk-2019-11-17/map" width="800" height="600" seamless="seamless"></iframe>

Where our data comes from

Plane Finder has a global network of data feeds and antenna radars that receive data broadcast directly from aircraft. The primary technologies used are ADS-B and MLAT. We also show feeds from the FAA and a FLARM glider feed.

Click here to find out more about the Plane Finder network.

How we collect our data